Wetterdaten: Samstag, 04.07.2015
Datum Zeit Temp. Aussen +5cm Feuchte Auss BlattFeu 1 Luftdruck Regen Sonnenschein Regendauer Solar Windben
04.07.2015 00:00 26,3 C 22,8 C 74 % 0 lf 1020,2 hPa 0,0 l/m 0 min 0 min 0 W/m 10,5 km/h (2 Bft)
04.07.2015 00:02 26,3 C 23,3 C 74 % 0 lf 1020,2 hPa 0,0 l/m 0 min 0 min 0 W/m 16,7 km/h (3 Bft)
04.07.2015 00:05 26,3 C 23,3 C 74 % 0 lf 1020,1 hPa 0,0 l/m 0 min 0 min 0 W/m 16,7 km/h (3 Bft)
04.07.2015 00:06 26,3 C 23,3 C 74 % 0 lf 1020,2 hPa 0,0 l/m 0 min 0 min 0 W/m 16,7 km/h (3 Bft)
04.07.2015 00:08 26,3 C 23,3 C 74 % 0 lf 1020,2 hPa 0,0 l/m 0 min 0 min 0 W/m 12,6 km/h (3 Bft)
04.07.2015 00:10 26,3 C 23,3 C 74 % 0 lf 1020,1 hPa 0,0 l/m 0 min 0 min 0 W/m 16,7 km/h (3 Bft)
04.07.2015 00:12 26,3 C 23,3 C 74 % 0 lf 1020,1 hPa 0,0 l/m 0 min 0 min 0 W/m 14,6 km/h (3 Bft)
04.07.2015 00:14 26,3 C 23,3 C 74 % 0 lf 1020,1 hPa 0,0 l/m 0 min 0 min 0 W/m 16,7 km/h (3 Bft)
04.07.2015 00:16 26,3 C 23,3 C 75 % 0 lf 1020,0 hPa 0,0 l/m 0 min 0 min 0 W/m 12,6 km/h (3 Bft)
04.07.2015 00:18 26,3 C 23,3 C 74 % 0 lf 1020,0 hPa 0,0 l/m 0 min 0 min 0 W/m 16,7 km/h (3 Bft)
04.07.2015 00:20 26,2 C 23,3 C 74 % 0 lf 1020,1 hPa 0,0 l/m 0 min 0 min 0 W/m 10,5 km/h (2 Bft)
04.07.2015 00:22 26,2 C 23,3 C 74 % 0 lf 1020,0 hPa 0,0 l/m 0 min 0 min 0 W/m 14,6 km/h (3 Bft)
04.07.2015 00:24 26,2 C 22,8 C 74 % 0 lf 1020,0 hPa 0,0 l/m 0 min 0 min 0 W/m 8,4 km/h (2 Bft)
04.07.2015 00:26 26,2 C 22,8 C 75 % 0 lf 1020,0 hPa 0,0 l/m 0 min 0 min 0 W/m 10,5 km/h (2 Bft)
04.07.2015 00:28 26,2 C 22,8 C 74 % 0 lf 1020,0 hPa 0,0 l/m 0 min 0 min 0 W/m 8,4 km/h (2 Bft)
04.07.2015 00:30 26,2 C 22,8 C 75 % 0 lf 1020,0 hPa 0,0 l/m 0 min 0 min 0 W/m 8,4 km/h (2 Bft)
04.07.2015 00:32 26,2 C 22,8 C 75 % 0 lf 1020,0 hPa 0,0 l/m 0 min 0 min 0 W/m 12,6 km/h (3 Bft)
04.07.2015 00:34 26,1 C 22,8 C 75 % 0 lf 1020,0 hPa 0,0 l/m 0 min 0 min 0 W/m 6,3 km/h (2 Bft)
04.07.2015 00:36 26,1 C 22,8 C 75 % 0 lf 1020,0 hPa 0,0 l/m 0 min 0 min 0 W/m 10,5 km/h (2 Bft)
04.07.2015 00:38 26,1 C 22,8 C 75 % 0 lf 1019,9 hPa 0,0 l/m 0 min 0 min 0 W/m 6,3 km/h (2 Bft)
04.07.2015 00:40 26,1 C 22,8 C 75 % 0 lf 1019,9 hPa 0,0 l/m 0 min 0 min 0 W/m 10,5 km/h (2 Bft)
04.07.2015 00:42 26,1 C 22,8 C 75 % 0 lf 1020,0 hPa 0,0 l/m 0 min 0 min 0 W/m 16,7 km/h (3 Bft)
04.07.2015 00:44 26,1 C 22,8 C 75 % 0 lf 1019,9 hPa 0,0 l/m 0 min 0 min 0 W/m 12,6 km/h (3 Bft)
04.07.2015 00:46 26,0 C 22,8 C 75 % 0 lf 1019,9 hPa 0,0 l/m 0 min 0 min 0 W/m 6,3 km/h (2 Bft)
04.07.2015 00:48 26,0 C 22,8 C 75 % 0 lf 1019,9 hPa 0,0 l/m 0 min 0 min 0 W/m 14,6 km/h (3 Bft)
04.07.2015 00:50 26,0 C 22,8 C 75 % 0 lf 1019,8 hPa 0,0 l/m 0 min 0 min 0 W/m 12,6 km/h (3 Bft)
04.07.2015 00:52 25,9 C 22,8 C 75 % 0 lf 1019,8 hPa 0,0 l/m 0 min 0 min 0 W/m 10,5 km/h (2 Bft)
04.07.2015 00:54 25,9 C 22,8 C 75 % 0 lf 1019,8 hPa 0,0 l/m 0 min 0 min 0 W/m 6,3 km/h (2 Bft)
04.07.2015 00:56 25,9 C 22,8 C 75 % 0 lf 1019,8 hPa 0,0 l/m 0 min 0 min 0 W/m 8,4 km/h (2 Bft)
04.07.2015 00:58 25,9 C 22,8 C 75 % 0 lf 1019,8 hPa 0,0 l/m 0 min 0 min 0 W/m 8,4 km/h (2 Bft)
04.07.2015 01:00 25,9 C 22,8 C 75 % 0 lf 1019,7 hPa 0,0 l/m 0 min 0 min 0 W/m 14,6 km/h (3 Bft)
04.07.2015 01:02 25,8 C 22,8 C 76 % 0 lf 1019,7 hPa 0,0 l/m 0 min 0 min 0 W/m 14,6 km/h (3 Bft)
04.07.2015 01:04 25,8 C 22,8 C 76 % 0 lf 1019,7 hPa 0,0 l/m 0 min 0 min 0 W/m 6,3 km/h (2 Bft)
04.07.2015 01:06 25,8 C 22,8 C 76 % 0 lf 1019,7 hPa 0,0 l/m 0 min 0 min 0 W/m 14,6 km/h (3 Bft)
04.07.2015 01:08 25,8 C 22,8 C 76 % 0 lf 1019,7 hPa 0,0 l/m 0 min 0 min 0 W/m 6,3 km/h (2 Bft)
04.07.2015 01:10 25,7 C 22,8 C 76 % 0 lf 1019,7 hPa 0,0 l/m 0 min 0 min 0 W/m 8,4 km/h (2 Bft)
04.07.2015 01:12 25,7 C 22,8 C 76 % 0 lf 1019,7 hPa 0,0 l/m 0 min 0 min 0 W/m 8,4 km/h (2 Bft)
04.07.2015 01:14 25,7 C 22,2 C 76 % 0 lf 1019,7 hPa 0,0 l/m 0 min 0 min 0 W/m 6,3 km/h (2 Bft)
04.07.2015 01:16 25,7 C 22,8 C 76 % 0 lf 1019,7 hPa 0,0 l/m 0 min 0 min 0 W/m 14,6 km/h (3 Bft)
04.07.2015 01:18 25,7 C 22,8 C 76 % 0 lf 1019,7 hPa 0,0 l/m 0 min 0 min 0 W/m 10,5 km/h (2 Bft)
04.07.2015 01:20 25,6 C 22,2 C 76 % 0 lf 1019,7 hPa 0,0 l/m 0 min 0 min 0 W/m 10,5 km/h (2 Bft)
04.07.2015 01:22 25,6 C 22,2 C 76 % 0 lf 1019,7 hPa 0,0 l/m 0 min 0 min 0 W/m 10,5 km/h (2 Bft)
04.07.2015 01:24 25,6 C 22,8 C 76 % 0 lf 1019,7 hPa 0,0 l/m 0 min 0 min 0 W/m 14,6 km/h (3 Bft)
04.07.2015 01:26 25,6 C 22,8 C 77 % 0 lf 1019,7 hPa 0,0 l/m 0 min 0 min 0 W/m 6,3 km/h (2 Bft)
04.07.2015 01:28 25,5 C 22,8 C 77 % 0 lf 1019,7 hPa 0,0 l/m 0 min 0 min 0 W/m 12,6 km/h (3 Bft)
04.07.2015 01:30 25,5 C 22,8 C 77 % 0 lf 1019,6 hPa 0,0 l/m 0 min 0 min 0 W/m 8,4 km/h (2 Bft)
04.07.2015 01:32 25,5 C 22,2 C 77 % 0 lf 1019,6 hPa 0,0 l/m 0 min 0 min 0 W/m 10,5 km/h (2 Bft)
04.07.2015 01:34 25,4 C 22,2 C 77 % 0 lf 1019,6 hPa 0,0 l/m 0 min 0 min 0 W/m 10,5 km/h (2 Bft)
04.07.2015 01:36 25,4 C 22,2 C 77 % 0 lf 1019,6 hPa 0,0 l/m 0 min 0 min 0 W/m 8,4 km/h (2 Bft)
04.07.2015 01:38 25,4 C 22,2 C 77 % 0 lf 1019,6 hPa 0,0 l/m 0 min 0 min 0 W/m 10,5 km/h (2 Bft)
04.07.2015 01:40 25,4 C 22,2 C 77 % 0 lf 1019,6 hPa 0,0 l/m 0 min 0 min 0 W/m 10,5 km/h (2 Bft)
04.07.2015 01:42 25,4 C 22,2 C 77 % 0 lf 1019,6 hPa 0,0 l/m 0 min 0 min 0 W/m 10,5 km/h (2 Bft)
04.07.2015 01:44 25,3 C 22,2 C 77 % 0 lf 1019,5 hPa 0,0 l/m 0 min 0 min 0 W/m 12,6 km/h (3 Bft)
04.07.2015 01:46 25,3 C 22,2 C 77 % 0 lf 1019,5 hPa 0,0 l/m 0 min 0 min 0 W/m 8,4 km/h (2 Bft)
04.07.2015 01:48 25,3 C 22,2 C 77 % 0 lf 1019,5 hPa 0,0 l/m 0 min 0 min 0 W/m 8,4 km/h (2 Bft)
04.07.2015 01:50 25,3 C 22,2 C 77 % 0 lf 1019,4 hPa 0,0 l/m 0 min 0 min 0 W/m 14,6 km/h (3 Bft)
04.07.2015 01:52 25,2 C 22,2 C 77 % 0 lf 1019,4 hPa 0,0 l/m 0 min 0 min 0 W/m 8,4 km/h (2 Bft)
04.07.2015 01:54 25,2 C 22,2 C 77 % 0 lf 1019,3 hPa 0,0 l/m 0 min 0 min 0 W/m 8,4 km/h (2 Bft)
04.07.2015 01:56 25,2 C 22,2 C 77 % 0 lf 1019,3 hPa 0,0 l/m 0 min 0 min 0 W/m 8,4 km/h (2 Bft)
04.07.2015 01:58 25,2 C 22,2 C 78 % 0 lf 1019,2 hPa 0,0 l/m 0 min 0 min 0 W/m 6,3 km/h (2 Bft)
04.07.2015 02:00 25,1 C 21,7 C 78 % 0 lf 1019,3 hPa 0,0 l/m 0 min 0 min 0 W/m 6,3 km/h (2 Bft)
04.07.2015 02:02 25,1 C 21,7 C 78 % 0 lf 1019,2 hPa 0,0 l/m 0 min 0 min 0 W/m 4,2 km/h (1 Bft)
04.07.2015 02:04 25,1 C 21,7 C 78 % 0 lf 1019,2 hPa 0,0 l/m 0 min 0 min 0 W/m 4,2 km/h (1 Bft)
04.07.2015 02:06 25,1 C 21,7 C 78 % 0 lf 1019,2 hPa 0,0 l/m 0 min 0 min 0 W/m 8,4 km/h (2 Bft)
04.07.2015 02:08 25,1 C 21,7 C 78 % 0 lf 1019,2 hPa 0,0 l/m 0 min 0 min 0 W/m 6,3 km/h (2 Bft)
04.07.2015 02:10 25,1 C 21,7 C 78 % 0 lf 1019,1 hPa 0,0 l/m 0 min 0 min 0 W/m 6,3 km/h (2 Bft)
04.07.2015 02:12 25,0 C 21,7 C 78 % 0 lf 1019,0 hPa 0,0 l/m 0 min 0 min 0 W/m 6,3 km/h (2 Bft)
04.07.2015 02:14 25,0 C 21,7 C 78 % 0 lf 1019,0 hPa 0,0 l/m 0 min 0 min 0 W/m 6,3 km/h (2 Bft)
04.07.2015 02:16 24,9 C 21,7 C 78 % 0 lf 1019,0 hPa 0,0 l/m 0 min 0 min 0 W/m 10,5 km/h (2 Bft)
04.07.2015 02:18 24,9 C 21,7 C 78 % 0 lf 1019,0 hPa 0,0 l/m 0 min 0 min 0 W/m 10,5 km/h (2 Bft)
04.07.2015 02:20 24,9 C 21,7 C 78 % 0 lf 1018,9 hPa 0,0 l/m 0 min 0 min 0 W/m 10,5 km/h (2 Bft)
04.07.2015 02:22 24,8 C 21,7 C 78 % 0 lf 1018,9 hPa 0,0 l/m 0 min 0 min 0 W/m 10,5 km/h (2 Bft)
04.07.2015 02:24 24,8 C 21,7 C 79 % 0 lf 1018,9 hPa 0,0 l/m 0 min 0 min 0 W/m 10,5 km/h (2 Bft)
04.07.2015 02:26 24,8 C 21,7 C 79 % 0 lf 1018,9 hPa 0,0 l/m 0 min 0 min 0 W/m 8,4 km/h (2 Bft)
04.07.2015 02:28 24,8 C 21,7 C 79 % 0 lf 1018,9 hPa 0,0 l/m 0 min 0 min 0 W/m 8,4 km/h (2 Bft)
04.07.2015 02:30 24,7 C 21,7 C 79 % 0 lf 1018,9 hPa 0,0 l/m 0 min 0 min 0 W/m 6,3 km/h (2 Bft)
04.07.2015 02:32 24,7 C 21,7 C 79 % 0 lf 1018,9 hPa 0,0 l/m 0 min 0 min 0 W/m 10,5 km/h (2 Bft)
04.07.2015 02:34 24,7 C 21,7 C 79 % 0 lf 1018,9 hPa 0,0 l/m 0 min 0 min 0 W/m 6,3 km/h (2 Bft)
04.07.2015 02:36 24,7 C 21,7 C 79 % 0 lf 1018,9 hPa 0,0 l/m 0 min 0 min 0 W/m 10,5 km/h (2 Bft)
04.07.2015 02:38 24,6 C 21,7 C 79 % 0 lf 1018,9 hPa 0,0 l/m 0 min 0 min 0 W/m 6,3 km/h (2 Bft)
04.07.2015 02:40 24,6 C 21,7 C 79 % 0 lf 1018,9 hPa 0,0 l/m 0 min 0 min 0 W/m 10,5 km/h (2 Bft)
04.07.2015 02:42 24,6 C 21,7 C 79 % 0 lf 1018,9 hPa 0,0 l/m 0 min 0 min 0 W/m 6,3 km/h (2 Bft)
04.07.2015 02:44 24,6 C 21,7 C 79 % 0 lf 1018,9 hPa 0,0 l/m 0 min 0 min 0 W/m 10,5 km/h (2 Bft)
04.07.2015 02:46 24,6 C 21,7 C 80 % 0 lf 1018,8 hPa 0,0 l/m 0 min 0 min 0 W/m 4,2 km/h (1 Bft)
04.07.2015 02:48 24,5 C 21,7 C 80 % 0 lf 1018,8 hPa 0,0 l/m 0 min 0 min 0 W/m 6,3 km/h (2 Bft)
04.07.2015 02:50 24,5 C 21,1 C 79 % 0 lf 1018,7 hPa 0,0 l/m 0 min 0 min 0 W/m 6,3 km/h (2 Bft)
04.07.2015 02:52 24,5 C 21,1 C 79 % 0 lf 1018,7 hPa 0,0 l/m 0 min 0 min 0 W/m 6,3 km/h (2 Bft)
04.07.2015 02:54 24,4 C 21,1 C 80 % 0 lf 1018,6 hPa 0,0 l/m 0 min 0 min 0 W/m 6,3 km/h (2 Bft)
04.07.2015 02:56 24,4 C 21,1 C 80 % 0 lf 1018,6 hPa 0,0 l/m 0 min 0 min 0 W/m 8,4 km/h (2 Bft)
04.07.2015 02:58 24,4 C 21,1 C 80 % 0 lf 1018,6 hPa 0,0 l/m 0 min 0 min 0 W/m 6,3 km/h (2 Bft)
04.07.2015 03:00 24,4 C 21,1 C 80 % 0 lf 1018,5 hPa 0,0 l/m 0 min 0 min 0 W/m 6,3 km/h (2 Bft)
04.07.2015 03:02 24,4 C 21,1 C 80 % 0 lf 1018,5 hPa 0,0 l/m 0 min 0 min 0 W/m 6,3 km/h (2 Bft)
04.07.2015 03:04 24,4 C 21,1 C 80 % 0 lf 1018,5 hPa 0,0 l/m 0 min 0 min 0 W/m 8,4 km/h (2 Bft)
04.07.2015 03:06 24,3 C 21,1 C 80 % 0 lf 1018,5 hPa 0,0 l/m 0 min 0 min 0 W/m 6,3 km/h (2 Bft)
04.07.2015 03:08 24,3 C 21,1 C 80 % 0 lf 1018,4 hPa 0,0 l/m 0 min 0 min 0 W/m 4,2 km/h (1 Bft)
04.07.2015 03:10 24,3 C 21,1 C 80 % 0 lf 1018,4 hPa 0,0 l/m 0 min 0 min 0 W/m 2,1 km/h (1 Bft)
04.07.2015 03:12 24,3 C 21,1 C 80 % 0 lf 1018,4 hPa 0,0 l/m 0 min 0 min 0 W/m 2,1 km/h (1 Bft)
04.07.2015 03:14 24,3 C 21,1 C 80 % 0 lf 1018,4 hPa 0,0 l/m 0 min 0 min 0 W/m 6,3 km/h (2 Bft)
04.07.2015 03:16 24,2 C 21,1 C 80 % 0 lf 1018,4 hPa 0,0 l/m 0 min 0 min 0 W/m 6,3 km/h (2 Bft)
04.07.2015 03:18 24,2 C 21,1 C 81 % 0 lf 1018,4 hPa 0,0 l/m 0 min 0 min 0 W/m 8,4 km/h (2 Bft)
04.07.2015 03:20 24,2 C 21,1 C 81 % 0 lf 1018,4 hPa 0,0 l/m 0 min 0 min 0 W/m 10,5 km/h (2 Bft)
04.07.2015 03:22 24,2 C 21,1 C 81 % 0 lf 1018,4 hPa 0,0 l/m 0 min 0 min 0 W/m 10,5 km/h (2 Bft)
04.07.2015 03:24 24,1 C 21,7 C 81 % 0 lf 1018,3 hPa 0,0 l/m 0 min 0 min 0 W/m 12,6 km/h (3 Bft)
04.07.2015 03:26 24,1 C 21,7 C 81 % 0 lf 1018,3 hPa 0,0 l/m 0 min 0 min 0 W/m 10,5 km/h (2 Bft)
04.07.2015 03:28 24,1 C 21,7 C 81 % 0 lf 1018,3 hPa 0,0 l/m 0 min 0 min 0 W/m 6,3 km/h (2 Bft)
04.07.2015 03:30 24,1 C 21,7 C 81 % 0 lf 1018,3 hPa 0,0 l/m 0 min 0 min 0 W/m 10,5 km/h (2 Bft)
04.07.2015 03:32 24,1 C 21,1 C 81 % 0 lf 1018,3 hPa 0,0 l/m 0 min 0 min 0 W/m 4,2 km/h (1 Bft)
04.07.2015 03:34 24,0 C 21,1 C 82 % 0 lf 1018,3 hPa 0,0 l/m 0 min 0 min 0 W/m 12,6 km/h (3 Bft)
04.07.2015 03:36 24,0 C 21,1 C 82 % 0 lf 1018,2 hPa 0,0 l/m 0 min 0 min 0 W/m 10,5 km/h (2 Bft)
04.07.2015 03:38 24,0 C 21,1 C 82 % 0 lf 1018,2 hPa 0,0 l/m 0 min 0 min 0 W/m 10,5 km/h (2 Bft)
04.07.2015 03:40 24,0 C 21,1 C 82 % 0 lf 1018,2 hPa 0,0 l/m 0 min 0 min 0 W/m 6,3 km/h (2 Bft)
04.07.2015 03:42 23,9 C 21,1 C 82 % 0 lf 1018,2 hPa 0,0 l/m 0 min 0 min 0 W/m 4,2 km/h (1 Bft)
04.07.2015 03:44 23,9 C 21,7 C 82 % 0 lf 1018,2 hPa 0,0 l/m 0 min 0 min 0 W/m 10,5 km/h (2 Bft)
04.07.2015 03:46 23,9 C 21,7 C 82 % 0 lf 1018,2 hPa 0,0 l/m 0 min 0 min 0 W/m 6,3 km/h (2 Bft)
04.07.2015 03:48 23,9 C 21,1 C 82 % 0 lf 1018,2 hPa 0,0 l/m 0 min 0 min 0 W/m 4,2 km/h (1 Bft)
04.07.2015 03:50 23,9 C 21,1 C 82 % 0 lf 1018,1 hPa 0,0 l/m 0 min 0 min 0 W/m 4,2 km/h (1 Bft)
04.07.2015 03:52 23,9 C 21,1 C 82 % 0 lf 1018,2 hPa 0,0 l/m 0 min 0 min 0 W/m 2,1 km/h (1 Bft)
04.07.2015 03:54 23,9 C 21,1 C 82 % 0 lf 1018,1 hPa 0,0 l/m 0 min 0 min 0 W/m 4,2 km/h (1 Bft)
04.07.2015 03:56 23,8 C 21,1 C 82 % 0 lf 1018,1 hPa 0,0 l/m 0 min 0 min 0 W/m 2,1 km/h (1 Bft)
04.07.2015 03:58 23,8 C 21,1 C 82 % 0 lf 1018,1 hPa 0,0 l/m 0 min 0 min 0 W/m 2,1 km/h (1 Bft)
04.07.2015 04:00 23,8 C 21,1 C 82 % 0 lf 1018,0 hPa 0,0 l/m 0 min 0 min 0 W/m 4,2 km/h (1 Bft)
04.07.2015 04:02 23,8 C 21,1 C 82 % 0 lf 1018,0 hPa 0,0 l/m 0 min 0 min 0 W/m 4,2 km/h (1 Bft)
04.07.2015 04:04 23,8 C 21,1 C 82 % 0 lf 1018,1 hPa 0,0 l/m 0 min 0 min 0 W/m 2,1 km/h (1 Bft)
04.07.2015 04:06 23,8 C 20,6 C 82 % 0 lf 1017,9 hPa 0,0 l/m 0 min 0 min 0 W/m 4,2 km/h (1 Bft)
04.07.2015 04:08 23,7 C 20,6 C 82 % 0 lf 1017,9 hPa 0,0 l/m 0 min 0 min 0 W/m 4,2 km/h (1 Bft)
04.07.2015 04:10 23,7 C 20,6 C 82 % 0 lf 1017,9 hPa 0,0 l/m 0 min 0 min 0 W/m 4,2 km/h (1 Bft)
04.07.2015 04:12 23,7 C 20,6 C 82 % 0 lf 1017,7 hPa 0,0 l/m 0 min 0 min 0 W/m 4,2 km/h (1 Bft)
04.07.2015 04:14 23,7 C 20,6 C 82 % 0 lf 1017,8 hPa 0,0 l/m 0 min 0 min 0 W/m 2,1 km/h (1 Bft)
04.07.2015 04:16 23,7 C 20,6 C 82 % 0 lf 1017,8 hPa 0,0 l/m 0 min 0 min 0 W/m 4,2 km/h (1 Bft)
04.07.2015 04:18 23,7 C 20,6 C 82 % 0 lf 1017,8 hPa 0,0 l/m 0 min 0 min 0 W/m 2,1 km/h (1 Bft)
04.07.2015 04:20 23,6 C 20,6 C 82 % 0 lf 1017,8 hPa 0,0 l/m 0 min 0 min 0 W/m 4,2 km/h (1 Bft)
04.07.2015 04:22 23,6 C 20,6 C 82 % 0 lf 1017,7 hPa 0,0 l/m 0 min 0 min 0 W/m 4,2 km/h (1 Bft)
04.07.2015 04:24 23,6 C 20,6 C 82 % 0 lf 1017,7 hPa 0,0 l/m 0 min 0 min 0 W/m 2,1 km/h (1 Bft)
04.07.2015 04:26 23,6 C 20,6 C 82 % 0 lf 1017,8 hPa 0,0 l/m 0 min 0 min 0 W/m 2,1 km/h (1 Bft)
04.07.2015 04:28 23,5 C 20,6 C 83 % 0 lf 1017,8 hPa 0,0 l/m 0 min 0 min 0 W/m 4,2 km/h (1 Bft)
04.07.2015 04:30 23,5 C 20,6 C 83 % 0 lf 1017,7 hPa 0,0 l/m 0 min 0 min 0 W/m 4,2 km/h (1 Bft)
04.07.2015 04:32 23,4 C 20,6 C 83 % 0 lf 1017,7 hPa 0,0 l/m 0 min 0 min 0 W/m 4,2 km/h (1 Bft)
04.07.2015 04:34 23,4 C 20,6 C 83 % 0 lf 1017,7 hPa 0,0 l/m 0 min 0 min 0 W/m 4,2 km/h (1 Bft)
04.07.2015 04:36 23,4 C 20,6 C 83 % 0 lf 1017,7 hPa 0,0 l/m 0 min 0 min 0 W/m 2,1 km/h (1 Bft)
04.07.2015 04:38 23,4 C 20,6 C 83 % 0 lf 1017,6 hPa 0,0 l/m 0 min 0 min 0 W/m 4,2 km/h (1 Bft)
04.07.2015 04:40 23,4 C 20,6 C 83 % 0 lf 1017,6 hPa 0,0 l/m 0 min 0 min 0 W/m 2,1 km/h (1 Bft)
04.07.2015 04:42 23,3 C 20,6 C 83 % 0 lf 1017,6 hPa 0,0 l/m 0 min 0 min 0 W/m 2,1 km/h (1 Bft)
04.07.2015 04:44 23,3 C 20,6 C 83 % 0 lf 1017,7 hPa 0,0 l/m 0 min 0 min 0 W/m 0,0 km/h (0 Bft)
04.07.2015 04:46 23,3 C 20,6 C 83 % 0 lf 1017,7 hPa 0,0 l/m 0 min 0 min 0 W/m 4,2 km/h (1 Bft)
04.07.2015 04:48 23,3 C 20,6 C 83 % 0 lf 1017,6 hPa 0,0 l/m 0 min 0 min 0 W/m 4,2 km/h (1 Bft)
04.07.2015 04:50 23,3 C 20,6 C 84 % 0 lf 1017,6 hPa 0,0 l/m 0 min 0 min 0 W/m 6,3 km/h (2 Bft)
04.07.2015 04:52 23,2 C 20,6 C 84 % 0 lf 1017,6 hPa 0,0 l/m 0 min 0 min 0 W/m 6,3 km/h (2 Bft)
04.07.2015 04:54 23,2 C 20,6 C 84 % 0 lf 1017,6 hPa 0,0 l/m 0 min 0 min 0 W/m 4,2 km/h (1 Bft)
04.07.2015 04:56 23,2 C 20,6 C 84 % 0 lf 1017,6 hPa 0,0 l/m 0 min 0 min 0 W/m 2,1 km/h (1 Bft)
04.07.2015 04:58 23,2 C 20,6 C 84 % 0 lf 1017,6 hPa 0,0 l/m 0 min 0 min 0 W/m 4,2 km/h (1 Bft)
04.07.2015 05:00 23,2 C 20,6 C 84 % 0 lf 1017,6 hPa 0,0 l/m 0 min 0 min 0 W/m 2,1 km/h (1 Bft)
04.07.2015 05:02 23,1 C 20,0 C 84 % 0 lf 1017,6 hPa 0,0 l/m 0 min 0 min 0 W/m 4,2 km/h (1 Bft)
04.07.2015 05:04 23,1 C 20,0 C 84 % 0 lf 1017,5 hPa 0,0 l/m 0 min 0 min 0 W/m 4,2 km/h (1 Bft)
04.07.2015 05:06 23,1 C 20,0 C 84 % 0 lf 1017,5 hPa 0,0 l/m 0 min 0 min 0 W/m 2,1 km/h (1 Bft)
04.07.2015 05:08 23,1 C 20,0 C 84 % 1 lf 1017,5 hPa 0,0 l/m 0 min 0 min 0 W/m 2,1 km/h (1 Bft)
04.07.2015 05:10 23,1 C 20,0 C 84 % 1 lf 1017,6 hPa 0,0 l/m 0 min 0 min 0 W/m 6,3 km/h (2 Bft)
04.07.2015 05:12 23,1 C 20,0 C 84 % 1 lf 1017,4 hPa 0,0 l/m 0 min 0 min 5 W/m 10,5 km/h (2 Bft)
04.07.2015 05:14 23,1 C 20,6 C 85 % 1 lf 1017,5 hPa 0,0 l/m 0 min 0 min 5 W/m 6,3 km/h (2 Bft)
04.07.2015 05:16 23,0 C 20,0 C 85 % 1 lf 1017,5 hPa 0,0 l/m 0 min 0 min 6 W/m 6,3 km/h (2 Bft)
04.07.2015 05:18 23,0 C 20,0 C 85 % 1 lf 1017,4 hPa 0,0 l/m 0 min 0 min 7 W/m 4,2 km/h (1 Bft)
04.07.2015 05:20 23,0 C 20,0 C 85 % 1 lf 1017,4 hPa 0,0 l/m 0 min 0 min 7 W/m 6,3 km/h (2 Bft)
04.07.2015 05:22 23,0 C 20,0 C 86 % 1 lf 1017,5 hPa 0,0 l/m 0 min 0 min 7 W/m 4,2 km/h (1 Bft)
04.07.2015 05:24 22,9 C 20,0 C 86 % 1 lf 1017,5 hPa 0,0 l/m 0 min 0 min 7 W/m 2,1 km/h (1 Bft)
04.07.2015 05:26 22,9 C 20,0 C 86 % 1 lf 1017,4 hPa 0,0 l/m 0 min 0 min 8 W/m 2,1 km/h (1 Bft)
04.07.2015 05:28 22,9 C 20,0 C 86 % 1 lf 1017,5 hPa 0,0 l/m 0 min 0 min 9 W/m 4,2 km/h (1 Bft)
04.07.2015 05:30 22,9 C 20,0 C 86 % 1 lf 1017,5 hPa 0,0 l/m 0 min 0 min 9 W/m 4,2 km/h (1 Bft)
04.07.2015 05:32 22,9 C 20,0 C 86 % 1 lf 1017,4 hPa 0,0 l/m 0 min 0 min 10 W/m 2,1 km/h (1 Bft)
04.07.2015 05:34 22,9 C 20,0 C 86 % 1 lf 1017,4 hPa 0,0 l/m 0 min 0 min 11 W/m 6,3 km/h (2 Bft)
04.07.2015 05:36 22,8 C 20,0 C 86 % 1 lf 1017,3 hPa 0,0 l/m 0 min 0 min 12 W/m 10,5 km/h (2 Bft)
04.07.2015 05:38 22,8 C 20,0 C 86 % 1 lf 1017,3 hPa 0,0 l/m 0 min 0 min 14 W/m 6,3 km/h (2 Bft)
04.07.2015 05:40 22,8 C 20,0 C 86 % 1 lf 1017,2 hPa 0,0 l/m 0 min 0 min 16 W/m 6,3 km/h (2 Bft)
04.07.2015 05:42 22,8 C 20,0 C 86 % 1 lf 1017,2 hPa 0,0 l/m 0 min 0 min 17 W/m 6,3 km/h (2 Bft)
04.07.2015 05:44 22,8 C 20,0 C 86 % 1 lf 1017,3 hPa 0,0 l/m 2 min 0 min 20 W/m 6,3 km/h (2 Bft)
04.07.2015 05:46 22,8 C 20,6 C 86 % 1 lf 1017,1 hPa 0,0 l/m 2 min 0 min 22 W/m 10,5 km/h (2 Bft)
04.07.2015 05:48 22,7 C 20,6 C 86 % 1 lf 1017,1 hPa 0,0 l/m 2 min 0 min 24 W/m 8,4 km/h (2 Bft)
04.07.2015 05:50 22,7 C 20,6 C 87 % 1 lf 1017,2 hPa 0,0 l/m 2 min 0 min 25 W/m 6,3 km/h (2 Bft)
04.07.2015 05:52 22,7 C 20,6 C 87 % 1 lf 1017,1 hPa 0,0 l/m 2 min 0 min 26 W/m 10,5 km/h (2 Bft)
04.07.2015 05:54 22,7 C 20,6 C 87 % 1 lf 1017,2 hPa 0,0 l/m 2 min 0 min 26 W/m 10,5 km/h (2 Bft)
04.07.2015 05:56 22,7 C 20,6 C 87 % 1 lf 1017,1 hPa 0,0 l/m 2 min 0 min 28 W/m 10,5 km/h (2 Bft)
04.07.2015 05:58 22,7 C 20,6 C 87 % 0 lf 1017,1 hPa 0,0 l/m 0 min 0 min 28 W/m 8,4 km/h (2 Bft)
04.07.2015 06:00 22,7 C 20,6 C 87 % 0 lf 1017,1 hPa 0,0 l/m 0 min 0 min 29 W/m 8,4 km/h (2 Bft)
04.07.2015 06:02 22,7 C 21,1 C 87 % 0 lf 1017,0 hPa 0,0 l/m 0 min 0 min 30 W/m 10,5 km/h (2 Bft)
04.07.2015 06:05 22,7 C 21,1 C 87 % 0 lf 1017,0 hPa 0,0 l/m 0 min 0 min 30 W/m 8,4 km/h (2 Bft)
04.07.2015 06:08 22,7 C 21,1 C 88 % 0 lf 1017,0 hPa 0,0 l/m 0 min 0 min 30 W/m 10,5 km/h (2 Bft)
04.07.2015 06:10 22,7 C 21,1 C 88 % 0 lf 1017,0 hPa 0,0 l/m 0 min 0 min 31 W/m 10,5 km/h (2 Bft)
04.07.2015 06:12 22,7 C 21,1 C 88 % 0 lf 1017,0 hPa 0,0 l/m 0 min 0 min 32 W/m 8,4 km/h (2 Bft)
04.07.2015 06:14 22,7 C 21,1 C 88 % 0 lf 1016,9 hPa 0,0 l/m 0 min 0 min 33 W/m 6,3 km/h (2 Bft)
04.07.2015 06:16 22,7 C 21,1 C 88 % 0 lf 1016,9 hPa 0,0 l/m 0 min 0 min 34 W/m 6,3 km/h (2 Bft)
04.07.2015 06:18 22,7 C 21,1 C 88 % 0 lf 1016,9 hPa 0,0 l/m 0 min 0 min 36 W/m 4,2 km/h (1 Bft)
04.07.2015 06:20 22,7 C 21,1 C 88 % 0 lf 1016,9 hPa 0,0 l/m 0 min 0 min 38 W/m 2,1 km/h (1 Bft)
04.07.2015 06:22 22,7 C 21,1 C 88 % 0 lf 1016,9 hPa 0,0 l/m 0 min 0 min 39 W/m 2,1 km/h (1 Bft)
04.07.2015 06:24 22,7 C 21,1 C 88 % 0 lf 1016,9 hPa 0,0 l/m 0 min 0 min 41 W/m 4,2 km/h (1 Bft)
04.07.2015 06:26 22,8 C 20,6 C 88 % 0 lf 1016,9 hPa 0,0 l/m 0 min 0 min 44 W/m 8,4 km/h (2 Bft)
04.07.2015 06:28 22,7 C 20,6 C 88 % 0 lf 1016,9 hPa 0,0 l/m 0 min 0 min 47 W/m 8,4 km/h (2 Bft)
04.07.2015 06:30 22,7 C 20,6 C 88 % 0 lf 1016,8 hPa 0,0 l/m 0 min 0 min 49 W/m 4,2 km/h (1 Bft)
04.07.2015 06:32 22,8 C 20,6 C 88 % 0 lf 1016,8 hPa 0,0 l/m 0 min 0 min 53 W/m 8,4 km/h (2 Bft)
04.07.2015 06:34 22,8 C 20,6 C 88 % 0 lf 1016,8 hPa 0,0 l/m 0 min 0 min 56 W/m 6,3 km/h (2 Bft)
04.07.2015 06:36 22,8 C 20,6 C 88 % 0 lf 1016,8 hPa 0,0 l/m 0 min 0 min 60 W/m 2,1 km/h (1 Bft)
04.07.2015 06:38 22,8 C 20,6 C 88 % 0 lf 1016,8 hPa 0,0 l/m 0 min 0 min 65 W/m 4,2 km/h (1 Bft)
04.07.2015 06:40 22,8 C 20,6 C 88 % 0 lf 1016,8 hPa 0,0 l/m 0 min 0 min 72 W/m 4,2 km/h (1 Bft)
04.07.2015 06:42 22,8 C 20,6 C 88 % 0 lf 1016,8 hPa 0,0 l/m 0 min 0 min 70 W/m 6,3 km/h (2 Bft)
04.07.2015 06:44 22,8 C 21,1 C 88 % 0 lf 1016,9 hPa 0,0 l/m 0 min 0 min 68 W/m 4,2 km/h (1 Bft)
04.07.2015 06:46 22,8 C 21,1 C 88 % 0 lf 1016,9 hPa 0,0 l/m 0 min 0 min 68 W/m 4,2 km/h (1 Bft)
04.07.2015 06:48 22,8 C 21,1 C 88 % 0 lf 1016,9 hPa 0,0 l/m 0 min 0 min 70 W/m 6,3 km/h (2 Bft)
04.07.2015 06:50 22,8 C 21,1 C 88 % 0 lf 1016,8 hPa 0,0 l/m 0 min 0 min 82 W/m 6,3 km/h (2 Bft)
04.07.2015 06:52 22,8 C 21,1 C 88 % 0 lf 1016,8 hPa 0,0 l/m 0 min 0 min 86 W/m 6,3 km/h (2 Bft)
04.07.2015 06:54 22,8 C 21,1 C 88 % 0 lf 1016,7 hPa 0,0 l/m 2 min 0 min 94 W/m 4,2 km/h (1 Bft)
04.07.2015 06:56 22,8 C 21,1 C 88 % 0 lf 1016,7 hPa 0,0 l/m 2 min 0 min 114 W/m 8,4 km/h (2 Bft)
04.07.2015 06:58 22,9 C 21,1 C 88 % 0 lf 1016,7 hPa 0,0 l/m 2 min 0 min 123 W/m 8,4 km/h (2 Bft)
04.07.2015 07:00 22,9 C 21,7 C 88 % 0 lf 1016,7 hPa 0,0 l/m 2 min 0 min 127 W/m 10,5 km/h (2 Bft)
04.07.2015 07:02 22,9 C 21,7 C 88 % 0 lf 1016,7 hPa 0,0 l/m 2 min 0 min 127 W/m 10,5 km/h (2 Bft)
04.07.2015 07:04 22,9 C 21,7 C 88 % 0 lf 1016,7 hPa 0,0 l/m 2 min 0 min 122 W/m 14,6 km/h (3 Bft)
04.07.2015 07:06 22,9 C 21,7 C 88 % 0 lf 1016,7 hPa 0,0 l/m 2 min 0 min 113 W/m 10,5 km/h (2 Bft)
04.07.2015 07:08 23,0 C 21,7 C 88 % 0 lf 1016,7 hPa 0,0 l/m 2 min 0 min 120 W/m 6,3 km/h (2 Bft)
04.07.2015 07:10 23,0 C 21,7 C 88 % 0 lf 1016,7 hPa 0,0 l/m 2 min 0 min 138 W/m 8,4 km/h (2 Bft)
04.07.2015 07:12 23,0 C 21,7 C 88 % 0 lf 1016,7 hPa 0,0 l/m 2 min 0 min 143 W/m 8,4 km/h (2 Bft)
04.07.2015 07:14 23,1 C 21,7 C 89 % 0 lf 1016,7 hPa 0,0 l/m 2 min 0 min 150 W/m 8,4 km/h (2 Bft)
04.07.2015 07:16 23,1 C 21,7 C 89 % 0 lf 1016,7 hPa 0,0 l/m 2 min 0 min 157 W/m 8,4 km/h (2 Bft)
04.07.2015 07:18 23,1 C 21,7 C 89 % 0 lf 1016,7 hPa 0,0 l/m 2 min 0 min 160 W/m 8,4 km/h (2 Bft)
04.07.2015 07:20 23,2 C 21,7 C 89 % 0 lf 1016,8 hPa 0,0 l/m 2 min 0 min 171 W/m 10,5 km/h (2 Bft)
04.07.2015 07:22 23,2 C 21,7 C 88 % 0 lf 1016,8 hPa 0,0 l/m 2 min 0 min 177 W/m 6,3 km/h (2 Bft)
04.07.2015 07:24 23,2 C 21,7 C 88 % 0 lf 1016,7 hPa 0,0 l/m 2 min 0 min 186 W/m 10,5 km/h (2 Bft)
04.07.2015 07:26 23,3 C 22,2 C 88 % 0 lf 1016,7 hPa 0,0 l/m 2 min 0 min 193 W/m 8,4 km/h (2 Bft)
04.07.2015 07:28 23,3 C 22,2 C 88 % 0 lf 1016,7 hPa 0,0 l/m 2 min 0 min 186 W/m 10,5 km/h (2 Bft)
04.07.2015 07:30 23,4 C 22,2 C 88 % 0 lf 1016,7 hPa 0,0 l/m 2 min 0 min 192 W/m 8,4 km/h (2 Bft)
04.07.2015 07:32 23,4 C 22,2 C 88 % 0 lf 1016,6 hPa 0,0 l/m 2 min 0 min 212 W/m 10,5 km/h (2 Bft)
04.07.2015 07:34 23,4 C 22,2 C 88 % 0 lf 1016,7 hPa 0,0 l/m 2 min 0 min 219 W/m 8,4 km/h (2 Bft)
04.07.2015 07:36 23,5 C 22,2 C 88 % 0 lf 1016,6 hPa 0,0 l/m 2 min 0 min 222 W/m 10,5 km/h (2 Bft)
04.07.2015 07:38 23,6 C 22,8 C 88 % 0 lf 1016,7 hPa 0,0 l/m 2 min 0 min 240 W/m 6,3 km/h (2 Bft)
04.07.2015 07:40 23,7 C 22,8 C 88 % 0 lf 1016,6 hPa 0,0 l/m 2 min 0 min 247 W/m 10,5 km/h (2 Bft)
04.07.2015 07:42 23,7 C 22,8 C 88 % 0 lf 1016,5 hPa 0,0 l/m 2 min 0 min 266 W/m 14,6 km/h (3 Bft)
04.07.2015 07:44 23,8 C 22,8 C 88 % 0 lf 1016,5 hPa 0,0 l/m 2 min 0 min 257 W/m 14,6 km/h (3 Bft)
04.07.2015 07:46 23,9 C 23,3 C 88 % 0 lf 1016,5 hPa 0,0 l/m 2 min 0 min 275 W/m 12,6 km/h (3 Bft)
04.07.2015 07:48 23,9 C 23,3 C 87 % 0 lf 1016,5 hPa 0,0 l/m 2 min 0 min 279 W/m 8,4 km/h (2 Bft)
04.07.2015 07:50 24,0 C 23,3 C 87 % 0 lf 1016,6 hPa 0,0 l/m 2 min 0 min 283 W/m 12,6 km/h (3 Bft)
04.07.2015 07:52 24,1 C 23,3 C 87 % 0 lf 1016,6 hPa 0,0 l/m 2 min 0 min 280 W/m 14,6 km/h (3 Bft)
04.07.2015 07:54 24,2 C 23,9 C 87 % 0 lf 1016,6 hPa 0,0 l/m 2 min 0 min 313 W/m 10,5 km/h (2 Bft)
04.07.2015 07:56 24,3 C 23,9 C 86 % 0 lf 1016,6 hPa 0,0 l/m 2 min 0 min 328 W/m 10,5 km/h (2 Bft)
04.07.2015 07:58 24,4 C 23,9 C 86 % 0 lf 1016,6 hPa 0,0 l/m 2 min 0 min 354 W/m 12,6 km/h (3 Bft)
04.07.2015 08:00 24,5 C 24,4 C 86 % 0 lf 1016,6 hPa 0,0 l/m 2 min 0 min 366 W/m 16,7 km/h (3 Bft)
04.07.2015 08:02 24,7 C 24,4 C 86 % 0 lf 1016,6 hPa 0,0 l/m 2 min 0 min 366 W/m 8,4 km/h (2 Bft)
04.07.2015 08:04 24,8 C 24,4 C 85 % 0 lf 1016,6 hPa 0,0 l/m 2 min 0 min 385 W/m 14,6 km/h (3 Bft)
04.07.2015 08:06 24,9 C 24,4 C 85 % 0 lf 1016,6 hPa 0,0 l/m 2 min 0 min 387 W/m 18,8 km/h (3 Bft)
04.07.2015 08:08 25,1 C 25,0 C 84 % 0 lf 1016,6 hPa 0,0 l/m 2 min 0 min 375 W/m 14,6 km/h (3 Bft)
04.07.2015 08:10 25,2 C 25,0 C 83 % 0 lf 1016,6 hPa 0,0 l/m 2 min 0 min 298 W/m 12,6 km/h (3 Bft)
04.07.2015 08:12 25,3 C 25,0 C 83 % 0 lf 1016,6 hPa 0,0 l/m 2 min 0 min 235 W/m 18,8 km/h (3 Bft)
04.07.2015 08:14 25,4 C 25,0 C 82 % 0 lf 1016,6 hPa 0,0 l/m 2 min 0 min 341 W/m 16,7 km/h (3 Bft)
04.07.2015 08:16 25,6 C 25,0 C 81 % 0 lf 1016,6 hPa 0,0 l/m 2 min 0 min 330 W/m 16,7 km/h (3 Bft)
04.07.2015 08:18 25,7 C 25,0 C 81 % 0 lf 1016,7 hPa 0,0 l/m 2 min 0 min 351 W/m 16,7 km/h (3 Bft)
04.07.2015 08:20 25,8 C 25,0 C 80 % 0 lf 1016,7 hPa 0,0 l/m 2 min 0 min 333 W/m 14,6 km/h (3 Bft)
04.07.2015 08:22 25,9 C 25,0 C 79 % 0 lf 1016,6 hPa 0,0 l/m 2 min 0 min 293 W/m 23,0 km/h (4 Bft)
04.07.2015 08:24 26,1 C 25,0 C 79 % 0 lf 1016,7 hPa 0,0 l/m 2 min 0 min 247 W/m 16,7 km/h (3 Bft)
04.07.2015 08:26 26,2 C 25,0 C 78 % 0 lf 1016,7 hPa 0,0 l/m 2 min 0 min 252 W/m 18,8 km/h (3 Bft)
04.07.2015 08:28 26,3 C 25,0 C 78 % 0 lf 1016,7 hPa 0,0 l/m 2 min 0 min 264 W/m 10,5 km/h (2 Bft)
04.07.2015 08:30 26,4 C 25,0 C 78 % 0 lf 1016,7 hPa 0,0 l/m 2 min 0 min 238 W/m 10,5 km/h (2 Bft)
04.07.2015 08:32 26,4 C 25,0 C 78 % 0 lf 1016,7 hPa 0,0 l/m 2 min 0 min 211 W/m 16,7 km/h (3 Bft)
04.07.2015 08:34 26,6 C 25,0 C 78 % 0 lf 1016,7 hPa 0,0 l/m 2 min 0 min 249 W/m 16,7 km/h (3 Bft)
04.07.2015 08:36 26,6 C 25,0 C 77 % 0 lf 1016,8 hPa 0,0 l/m 2 min 0 min 281 W/m 10,5 km/h (2 Bft)
04.07.2015 08:38 26,7 C 25,0 C 77 % 0 lf 1016,8 hPa 0,0 l/m 2 min 0 min 282 W/m 16,7 km/h (3 Bft)
04.07.2015 08:40 26,8 C 25,0 C 77 % 0 lf 1016,8 hPa 0,0 l/m 2 min 0 min 355 W/m 14,6 km/h (3 Bft)
04.07.2015 08:42 26,8 C 25,6 C 76 % 0 lf 1016,8 hPa 0,0 l/m 2 min 0 min 360 W/m 16,7 km/h (3 Bft)
04.07.2015 08:44 26,9 C 25,6 C 76 % 0 lf 1016,8 hPa 0,0 l/m 2 min 0 min 377 W/m 16,7 km/h (3 Bft)
04.07.2015 08:46 27,0 C 25,6 C 76 % 0 lf 1016,8 hPa 0,0 l/m 2 min 0 min 374 W/m 16,7 km/h (3 Bft)
04.07.2015 08:48 27,1 C 25,6 C 76 % 0 lf 1016,8 hPa 0,0 l/m 2 min 0 min 384 W/m 16,7 km/h (3 Bft)
04.07.2015 08:50 27,2 C 25,6 C 75 % 0 lf 1016,7 hPa 0,0 l/m 2 min 0 min 378 W/m 18,8 km/h (3 Bft)
04.07.2015 08:52 27,3 C 25,6 C 75 % 0 lf 1016,7 hPa 0,0 l/m 2 min 0 min 378 W/m 18,8 km/h (3 Bft)
04.07.2015 08:54 27,4 C 25,6 C 75 % 0 lf 1016,7 hPa 0,0 l/m 2 min 0 min 352 W/m 20,9 km/h (4 Bft)
04.07.2015 08:56 27,5 C 25,6 C 74 % 0 lf 1016,7 hPa 0,0 l/m 2 min 0 min 365 W/m 18,8 km/h (3 Bft)
04.07.2015 08:58 27,6 C 25,6 C 74 % 0 lf 1016,7 hPa 0,0 l/m 2 min 0 min 364 W/m 18,8 km/h (3 Bft)
04.07.2015 09:00 27,7 C 26,1 C 74 % 0 lf 1016,7 hPa 0,0 l/m 2 min 0 min 351 W/m 12,6 km/h (3 Bft)
04.07.2015 09:02 27,8 C 26,1 C 74 % 0 lf 1016,7 hPa 0,0 l/m 2 min 0 min 360 W/m 10,5 km/h (2 Bft)
04.07.2015 09:04 27,9 C 26,1 C 74 % 0 lf 1016,7 hPa 0,0 l/m 2 min 0 min 346 W/m 10,5 km/h (2 Bft)
04.07.2015 09:06 27,9 C 26,1 C 74 % 0 lf 1016,8 hPa 0,0 l/m 2 min 0 min 355 W/m 14,6 km/h (3 Bft)
04.07.2015 09:08 28,0 C 26,1 C 73 % 0 lf 1016,7 hPa 0,0 l/m 2 min 0 min 385 W/m 12,6 km/h (3 Bft)
04.07.2015 09:10 28,1 C 26,1 C 73 % 0 lf 1016,7 hPa 0,0 l/m 2 min 0 min 371 W/m 16,7 km/h (3 Bft)
04.07.2015 09:12 28,2 C 26,1 C 73 % 0 lf 1016,7 hPa 0,0 l/m 2 min 0 min 370 W/m 10,5 km/h (2 Bft)
04.07.2015 09:14 28,3 C 26,1 C 73 % 0 lf 1016,6 hPa 0,0 l/m 2 min 0 min 379 W/m 10,5 km/h (2 Bft)
04.07.2015 09:16 28,3 C 26,1 C 73 % 0 lf 1016,7 hPa 0,0 l/m 2 min 0 min 376 W/m 14,6 km/h (3 Bft)
04.07.2015 09:18 28,4 C 26,1 C 73 % 0 lf 1016,7 hPa 0,0 l/m 2 min 0 min 374 W/m 16,7 km/h (3 Bft)
04.07.2015 09:20 28,5 C 26,1 C 72 % 0 lf 1016,7 hPa 0,0 l/m 2 min 0 min 408 W/m 16,7 km/h (3 Bft)
04.07.2015 09:22 28,6 C 26,7 C 72 % 0 lf 1016,7 hPa 0,0 l/m 2 min 0 min 430 W/m 12,6 km/h (3 Bft)
04.07.2015 09:24 28,7 C 26,7 C 72 % 0 lf 1016,7 hPa 0,0 l/m 2 min 0 min 467 W/m 16,7 km/h (3 Bft)
04.07.2015 09:26 28,7 C 26,7 C 72 % 0 lf 1016,6 hPa 0,0 l/m 2 min 0 min 489 W/m 16,7 km/h (3 Bft)
04.07.2015 09:28 28,8 C 26,7 C 71 % 0 lf 1016,6 hPa 0,0 l/m 2 min 0 min 522 W/m 14,6 km/h (3 Bft)
04.07.2015 09:30 28,9 C 27,2 C 72 % 0 lf 1016,6 hPa 0,0 l/m 2 min 0 min 481 W/m 20,9 km/h (4 Bft)
04.07.2015 09:32 29,1 C 27,2 C 71 % 0 lf 1016,6 hPa 0,0 l/m 2 min 0 min 537 W/m 18,8 km/h (3 Bft)
04.07.2015 09:34 29,2 C 27,2 C 71 % 0 lf 1016,6 hPa 0,0 l/m 2 min 0 min 509 W/m 20,9 km/h (4 Bft)
04.07.2015 09:36 29,3 C 27,2 C 71 % 0 lf 1016,5 hPa 0,0 l/m 2 min 0 min 476 W/m 16,7 km/h (3 Bft)
04.07.2015 09:38 29,4 C 27,2 C 70 % 0 lf 1016,6 hPa 0,0 l/m 2 min 0 min 459 W/m 20,9 km/h (4 Bft)
04.07.2015 09:40 29,4 C 27,2 C 71 % 0 lf 1016,6 hPa 0,0 l/m 2 min 0 min 451 W/m 18,8 km/h (3 Bft)
04.07.2015 09:42 29,6 C 27,2 C 70 % 0 lf 1016,6 hPa 0,0 l/m 2 min 0 min 415 W/m 12,6 km/h (3 Bft)
04.07.2015 09:44 29,7 C 27,2 C 70 % 0 lf 1016,6 hPa 0,0 l/m 2 min 0 min 415 W/m 14,6 km/h (3 Bft)
04.07.2015 09:46 29,8 C 27,2 C 70 % 0 lf 1016,6 hPa 0,0 l/m 2 min 0 min 450 W/m 18,8 km/h (3 Bft)
04.07.2015 09:48 29,8 C 27,8 C 69 % 0 lf 1016,6 hPa 0,0 l/m 2 min 0 min 448 W/m 16,7 km/h (3 Bft)
04.07.2015 09:50 29,9 C 27,8 C 69 % 0 lf 1016,6 hPa 0,0 l/m 2 min 0 min 495 W/m 16,7 km/h (3 Bft)
04.07.2015 09:52 30,0 C 27,8 C 69 % 0 lf 1016,6 hPa 0,0 l/m 2 min 0 min 523 W/m 14,6 km/h (3 Bft)
04.07.2015 09:54 30,1 C 27,8 C 69 % 0 lf 1016,6 hPa 0,0 l/m 2 min 0 min 554 W/m 12,6 km/h (3 Bft)
04.07.2015 09:56 30,1 C 28,3 C 69 % 0 lf 1016,6 hPa 0,0 l/m 2 min 0 min 572 W/m 12,6 km/h (3 Bft)
04.07.2015 09:58 30,2 C 28,9 C 69 % 0 lf 1016,6 hPa 0,0 l/m 2 min 0 min 598 W/m 12,6 km/h (3 Bft)
04.07.2015 10:00 30,3 C 28,9 C 68 % 0 lf 1016,6 hPa 0,0 l/m 2 min 0 min 538 W/m 14,6 km/h (3 Bft)
04.07.2015 10:02 30,4 C 30,0 C 68 % 0 lf 1016,7 hPa 0,0 l/m 2 min 0 min 529 W/m 12,6 km/h (3 Bft)
04.07.2015 10:04 30,5 C 30,6 C 68 % 0 lf 1016,7 hPa 0,0 l/m 2 min 0 min 486 W/m 12,6 km/h (3 Bft)
04.07.2015 10:06 30,6 C 32,2 C 68 % 0 lf 1016,7 hPa 0,0 l/m 2 min 0 min 559 W/m 10,5 km/h (2 Bft)
04.07.2015 10:08 30,7 C 32,8 C 67 % 0 lf 1016,8 hPa 0,0 l/m 2 min 0 min 587 W/m 14,6 km/h (3 Bft)
04.07.2015 10:10 30,8 C 33,3 C 66 % 0 lf 1016,8 hPa 0,0 l/m 2 min 0 min 599 W/m 16,7 km/h (3 Bft)
04.07.2015 10:12 30,9 C 33,3 C 67 % 0 lf 1016,8 hPa 0,0 l/m 2 min 0 min 596 W/m 8,4 km/h (2 Bft)
04.07.2015 10:14 31,0 C 32,8 C 67 % 0 lf 1016,7 hPa 0,0 l/m 2 min 0 min 612 W/m 12,6 km/h (3 Bft)
04.07.2015 10:16 31,1 C 33,3 C 67 % 0 lf 1016,7 hPa 0,0 l/m 2 min 0 min 635 W/m 12,6 km/h (3 Bft)
04.07.2015 10:18 31,2 C 33,9 C 65 % 0 lf 1016,7 hPa 0,0 l/m 2 min 0 min 636 W/m 10,5 km/h (2 Bft)
04.07.2015 10:20 31,3 C 34,4 C 67 % 0 lf 1016,7 hPa 0,0 l/m 2 min 0 min 609 W/m 10,5 km/h (2 Bft)
04.07.2015 10:22 31,4 C 34,4 C 66 % 0 lf 1016,7 hPa 0,0 l/m 2 min 0 min 605 W/m 16,7 km/h (3 Bft)
04.07.2015 10:24 31,6 C 33,9 C 64 % 0 lf 1016,8 hPa 0,0 l/m 2 min 0 min 642 W/m 16,7 km/h (3 Bft)
04.07.2015 10:26 31,7 C 34,4 C 63 % 0 lf 1016,8 hPa 0,0 l/m 2 min 0 min 627 W/m 14,6 km/h (3 Bft)
04.07.2015 10:28 31,8 C 33,9 C 63 % 0 lf 1016,7 hPa 0,0 l/m 2 min 0 min 618 W/m 18,8 km/h (3 Bft)
04.07.2015 10:30 31,9 C 33,3 C 61 % 0 lf 1016,7 hPa 0,0 l/m 2 min 0 min 594 W/m 12,6 km/h (3 Bft)
04.07.2015 10:32 32,0 C 33,3 C 60 % 0 lf 1016,7 hPa 0,0 l/m 2 min 0 min 592 W/m 14,6 km/h (3 Bft)
04.07.2015 10:34 32,1 C 33,3 C 61 % 0 lf 1016,7 hPa 0,0 l/m 2 min 0 min 602 W/m 12,6 km/h (3 Bft)
04.07.2015 10:36 32,2 C 33,9 C 61 % 0 lf 1016,8 hPa 0,0 l/m 2 min 0 min 631 W/m 14,6 km/h (3 Bft)
04.07.2015 10:38 32,3 C 33,9 C 60 % 0 lf 1016,7 hPa 0,0 l/m 2 min 0 min 633 W/m 14,6 km/h (3 Bft)
04.07.2015 10:40 32,4 C 33,9 C 60 % 0 lf 1016,8 hPa 0,0 l/m 2 min 0 min 628 W/m 14,6 km/h (3 Bft)
04.07.2015 10:42 32,5 C 33,3 C 58 % 0 lf 1016,8 hPa 0,0 l/m 2 min 0 min 618 W/m 14,6 km/h (3 Bft)
04.07.2015 10:44 32,6 C 33,3 C 58 % 0 lf 1016,8 hPa 0,0 l/m 2 min 0 min 655 W/m 14,6 km/h (3 Bft)
04.07.2015 10:46 32,7 C 33,3 C 57 % 0 lf 1016,9 hPa 0,0 l/m 2 min 0 min 673 W/m 18,8 km/h (3 Bft)
04.07.2015 10:48 32,8 C 32,8 C 57 % 0 lf 1016,8 hPa 0,0 l/m 2 min 0 min 690 W/m 14,6 km/h (3 Bft)
04.07.2015 10:50 32,9 C 32,8 C 55 % 0 lf 1016,8 hPa 0,0 l/m 2 min 0 min 701 W/m 16,7 km/h (3 Bft)
04.07.2015 10:52 32,9 C 32,2 C 56 % 0 lf 1016,8 hPa 0,0 l/m 2 min 0 min 710 W/m 20,9 km/h (4 Bft)
04.07.2015 10:54 33,1 C 32,2 C 56 % 0 lf 1016,8 hPa 0,0 l/m 2 min 0 min 710 W/m 18,8 km/h (3 Bft)
04.07.2015 10:56 33,1 C 32,8 C 56 % 0 lf 1016,8 hPa 0,0 l/m 2 min 0 min 711 W/m 18,8 km/h (3 Bft)
04.07.2015 10:58 33,2 C 32,8 C 57 % 0 lf 1016,8 hPa 0,0 l/m 2 min 0 min 701 W/m 14,6 km/h (3 Bft)
04.07.2015 11:00 33,3 C 32,8 C 56 % 0 lf 1016,8 hPa 0,0 l/m 2 min 0 min 708 W/m 20,9 km/h (4 Bft)
04.07.2015 11:02 33,3 C 32,8 C 56 % 0 lf 1016,8 hPa 0,0 l/m 2 min 0 min 713 W/m 16,7 km/h (3 Bft)
04.07.2015 11:04 33,3 C 33,9 C 56 % 0 lf 1016,8 hPa 0,0 l/m 2 min 0 min 724 W/m 18,8 km/h (3 Bft)
04.07.2015 11:06 33,4 C 35,0 C 56 % 0 lf 1016,8 hPa 0,0 l/m 2 min 0 min 735 W/m 14,6 km/h (3 Bft)
04.07.2015 11:08 33,4 C 35,0 C 57 % 0 lf 1016,8 hPa 0,0 l/m 2 min 0 min 751 W/m 14,6 km/h (3 Bft)
04.07.2015 11:10 33,5 C 35,0 C 56 % 0 lf 1016,8 hPa 0,0 l/m 2 min 0 min 757 W/m 14,6 km/h (3 Bft)
04.07.2015 11:12 33,6 C 35,0 C 55 % 0 lf 1016,7 hPa 0,0 l/m 2 min 0 min 754 W/m 14,6 km/h (3 Bft)
04.07.2015 11:14 33,7 C 34,4 C 55 % 0 lf 1016,8 hPa 0,0 l/m 2 min 0 min 754 W/m 20,9 km/h (4 Bft)
04.07.2015 11:16 33,7 C 34,4 C 55 % 0 lf 1016,8 hPa 0,0 l/m 2 min 0 min 741 W/m 14,6 km/h (3 Bft)
04.07.2015 11:18 33,8 C 34,4 C 55 % 0 lf 1016,8 hPa 0,0 l/m 2 min 0 min 715 W/m 18,8 km/h (3 Bft)
04.07.2015 11:20 33,8 C 35,0 C 55 % 0 lf 1016,8 hPa 0,0 l/m 2 min 0 min 753 W/m 12,6 km/h (3 Bft)
04.07.2015 11:22 33,9 C 35,6 C 55 % 0 lf 1016,8 hPa 0,0 l/m 2 min 0 min 748 W/m 12,6 km/h (3 Bft)
04.07.2015 11:24 34,0 C 35,0 C 55 % 0 lf 1016,8 hPa 0,0 l/m 2 min 0 min 752 W/m 20,9 km/h (4 Bft)
04.07.2015 11:26 34,1 C 34,4 C 56 % 0 lf 1016,9 hPa 0,0 l/m 2 min 0 min 747 W/m 16,7 km/h (3 Bft)
04.07.2015 11:28 34,2 C 35,6 C 57 % 0 lf 1016,8 hPa 0,0 l/m 2 min 0 min 764 W/m 14,6 km/h (3 Bft)
04.07.2015 11:30 34,3 C 35,6 C 55 % 0 lf 1016,9 hPa 0,0 l/m 2 min 0 min 754 W/m 14,6 km/h (3 Bft)
04.07.2015 11:32 34,4 C 35,6 C 55 % 0 lf 1016,9 hPa 0,0 l/m 2 min 0 min 754 W/m 10,5 km/h (2 Bft)
04.07.2015 11:34 34,5 C 35,6 C 55 % 0 lf 1016,9 hPa 0,0 l/m 2 min 0 min 754 W/m 16,7 km/h (3 Bft)
04.07.2015 11:36 34,6 C 34,4 C 54 % 0 lf 1016,9 hPa 0,0 l/m 2 min 0 min 745 W/m 16,7 km/h (3 Bft)
04.07.2015 11:38 34,7 C 33,3 C 54 % 0 lf 1016,9 hPa 0,0 l/m 2 min 0 min 728 W/m 16,7 km/h (3 Bft)
04.07.2015 11:40 34,7 C 33,3 C 55 % 0 lf 1016,9 hPa 0,0 l/m 2 min 0 min 732 W/m 12,6 km/h (3 Bft)
04.07.2015 11:42 34,8 C 33,3 C 54 % 0 lf 1016,9 hPa 0,0 l/m 2 min 0 min 759 W/m 14,6 km/h (3 Bft)
04.07.2015 11:44 34,9 C 33,9 C 55 % 0 lf 1016,9 hPa 0,0 l/m 2 min 0 min 789 W/m 16,7 km/h (3 Bft)
04.07.2015 11:46 34,9 C 35,0 C 55 % 0 lf 1016,9 hPa 0,0 l/m 2 min 0 min 766 W/m 16,7 km/h (3 Bft)
04.07.2015 11:48 35,0 C 35,6 C 53 % 0 lf 1016,9 hPa 0,0 l/m 2 min 0 min 755 W/m 18,8 km/h (3 Bft)
04.07.2015 11:50 35,1 C 36,1 C 53 % 0 lf 1016,9 hPa 0,0 l/m 2 min 0 min 771 W/m 16,7 km/h (3 Bft)
04.07.2015 11:52 35,2 C 36,1 C 52 % 0 lf 1016,9 hPa 0,0 l/m 2 min 0 min 751 W/m 16,7 km/h (3 Bft)
04.07.2015 11:54 35,2 C 36,7 C 53 % 0 lf 1016,9 hPa 0,0 l/m 2 min 0 min 757 W/m 14,6 km/h (3 Bft)
04.07.2015 11:56 35,3 C 36,7 C 54 % 0 lf 1016,9 hPa 0,0 l/m 2 min 0 min 747 W/m 16,7 km/h (3 Bft)
04.07.2015 11:58 35,3 C 36,1 C 52 % 0 lf 1016,9 hPa 0,0 l/m 2 min 0 min 759 W/m 14,6 km/h (3 Bft)
04.07.2015 12:00 35,3 C 35,6 C 54 % 0 lf 1016,9 hPa 0,0 l/m 2 min 0 min 723 W/m 12,6 km/h (3 Bft)
04.07.2015 12:02 35,3 C 35,6 C 52 % 0 lf 1016,9 hPa 0,0 l/m 2 min 0 min 734 W/m 12,6 km/h (3 Bft)
04.07.2015 12:05 35,3 C 36,1 C 52 % 0 lf 1016,9 hPa 0,0 l/m 2 min 0 min 766 W/m 8,4 km/h (2 Bft)
04.07.2015 12:08 35,4 C 37,2 C 54 % 0 lf 1016,9 hPa 0,0 l/m 2 min 0 min 746 W/m 8,4 km/h (2 Bft)
04.07.2015 12:10 35,4 C 37,2 C 52 % 0 lf 1016,9 hPa 0,0 l/m 2 min 0 min 797 W/m 16,7 km/h (3 Bft)
04.07.2015 12:12 35,5 C 37,2 C 52 % 0 lf 1016,9 hPa 0,0 l/m 2 min 0 min 823 W/m 10,5 km/h (2 Bft)
04.07.2015 12:14 35,6 C 37,8 C 52 % 0 lf 1016,9 hPa 0,0 l/m 2 min 0 min 831 W/m 16,7 km/h (3 Bft)
04.07.2015 12:16 35,7 C 37,8 C 53 % 0 lf 1016,9 hPa 0,0 l/m 2 min 0 min 821 W/m 14,6 km/h (3 Bft)
04.07.2015 12:18 35,7 C 37,8 C 51 % 0 lf 1016,9 hPa 0,0 l/m 2 min 0 min 802 W/m 16,7 km/h (3 Bft)
04.07.2015 12:20 35,8 C 37,2 C 50 % 0 lf 1016,9 hPa 0,0 l/m 2 min 0 min 814 W/m 18,8 km/h (3 Bft)
04.07.2015 12:22 35,8 C 37,2 C 49 % 0 lf 1016,9 hPa 0,0 l/m 2 min 0 min 812 W/m 16,7 km/h (3 Bft)
04.07.2015 12:24 35,8 C 37,8 C 48 % 0 lf 1016,9 hPa 0,0 l/m 0 min 0 min 248 W/m 14,6 km/h (3 Bft)
04.07.2015 12:26 35,9 C 37,8 C 50 % 0 lf 1016,9 hPa 0,0 l/m 0 min 0 min 375 W/m 16,7 km/h (3 Bft)
04.07.2015 12:28 36,0 C 37,2 C 48 % 0 lf 1016,9 hPa 0,0 l/m 2 min 0 min 834 W/m 12,6 km/h (3 Bft)
04.07.2015 12:30 36,1 C 37,8 C 51 % 0 lf 1016,9 hPa 0,0 l/m 2 min 0 min 840 W/m 16,7 km/h (3 Bft)
04.07.2015 12:32 36,2 C 37,8 C 51 % 0 lf 1016,9 hPa 0,0 l/m 2 min 0 min 839 W/m 10,5 km/h (2 Bft)
04.07.2015 12:34 36,3 C 37,2 C 50 % 0 lf 1016,9 hPa 0,0 l/m 2 min 0 min 826 W/m 14,6 km/h (3 Bft)
04.07.2015 12:36 36,4 C 36,7 C 48 % 0 lf 1016,9 hPa 0,0 l/m 2 min 0 min 816 W/m 16,7 km/h (3 Bft)
04.07.2015 12:38 36,4 C 36,7 C 48 % 0 lf 1016,9 hPa 0,0 l/m 2 min 0 min 810 W/m 16,7 km/h (3 Bft)
04.07.2015 12:40 36,5 C 36,7 C 50 % 0 lf 1016,9 hPa 0,0 l/m 2 min 0 min 826 W/m 12,6 km/h (3 Bft)
04.07.2015 12:42 36,6 C 36,7 C 49 % 0 lf 1017,0 hPa 0,0 l/m 2 min 0 min 842 W/m 14,6 km/h (3 Bft)
04.07.2015 12:44 36,7 C 36,7 C 51 % 0 lf 1017,0 hPa 0,0 l/m 2 min 0 min 859 W/m 8,4 km/h (2 Bft)
04.07.2015 12:46 36,7 C 36,7 C 49 % 0 lf 1017,0 hPa 0,0 l/m 2 min 0 min 865 W/m 12,6 km/h (3 Bft)
04.07.2015 12:48 36,8 C 36,1 C 50 % 0 lf 1017,0 hPa 0,0 l/m 2 min 0 min 869 W/m 16,7 km/h (3 Bft)
04.07.2015 12:50 36,8 C 36,1 C 49 % 0 lf 1017,0 hPa 0,0 l/m 2 min 0 min 873 W/m 20,9 km/h (4 Bft)
04.07.2015 12:52 36,8 C 36,1 C 47 % 0 lf 1017,0 hPa 0,0 l/m 2 min 0 min 879 W/m 16,7 km/h (3 Bft)
04.07.2015 12:54 36,8 C 35,6 C 48 % 0 lf 1017,0 hPa 0,0 l/m 2 min 0 min 881 W/m 23,0 km/h (4 Bft)
04.07.2015 12:56 36,9 C 35,6 C 48 % 0 lf 1017,0 hPa 0,0 l/m 2 min 0 min 880 W/m 18,8 km/h (3 Bft)
04.07.2015 12:58 36,9 C 35,0 C 47 % 0 lf 1017,1 hPa 0,0 l/m 2 min 0 min 873 W/m 16,7 km/h (3 Bft)
04.07.2015 13:00 36,9 C 34,4 C 46 % 0 lf 1017,1 hPa 0,0 l/m 2 min 0 min 867 W/m 14,6 km/h (3 Bft)
04.07.2015 13:02 36,9 C 34,4 C 47 % 0 lf 1017,1 hPa 0,0 l/m 2 min 0 min 871 W/m 20,9 km/h (4 Bft)
04.07.2015 13:04 36,9 C 34,4 C 47 % 0 lf 1017,0 hPa 0,0 l/m 2 min 0 min 857 W/m 20,9 km/h (4 Bft)
04.07.2015 13:06 36,9 C 34,4 C 46 % 0 lf 1017,0 hPa 0,0 l/m 2 min 0 min 864 W/m 16,7 km/h (3 Bft)
04.07.2015 13:08 36,9 C 34,4 C 46 % 0 lf 1017,0 hPa 0,0 l/m 2 min 0 min 876 W/m 16,7 km/h (3 Bft)
04.07.2015 13:10 36,9 C 33,9 C 47 % 0 lf 1017,1 hPa 0,0 l/m 2 min 0 min 867 W/m 16,7 km/h (3 Bft)
04.07.2015 13:12 36,9 C 34,4 C 46 % 0 lf 1017,0 hPa 0,0 l/m 2 min 0 min 887 W/m 18,8 km/h (3 Bft)
04.07.2015 13:14 36,9 C 34,4 C 47 % 0 lf 1017,1 hPa 0,0 l/m 2 min 0 min 904 W/m 20,9 km/h (4 Bft)
04.07.2015 13:16 37,0 C 35,0 C 46 % 0 lf 1017,1 hPa 0,0 l/m 2 min 0 min 908 W/m 20,9 km/h (4 Bft)
04.07.2015 13:18 37,0 C 35,6 C 46 % 0 lf 1017,1 hPa 0,0 l/m 2 min 0 min 887 W/m 18,8 km/h (3 Bft)
04.07.2015 13:20 37,1 C 36,1 C 46 % 0 lf 1017,2 hPa 0,0 l/m 2 min 0 min 901 W/m 20,9 km/h (4 Bft)
04.07.2015 13:22 37,2 C 36,7 C 47 % 0 lf 1017,2 hPa 0,0 l/m 2 min 0 min 916 W/m 18,8 km/h (3 Bft)
04.07.2015 13:24 37,2 C 36,7 C 46 % 0 lf 1017,1 hPa 0,0 l/m 2 min 0 min 917 W/m 14,6 km/h (3 Bft)
04.07.2015 13:26 37,3 C 36,1 C 45 % 0 lf 1017,1 hPa 0,0 l/m 2 min 0 min 925 W/m 14,6 km/h (3 Bft)
04.07.2015 13:28 37,3 C 35,0 C 44 % 0 lf 1017,1 hPa 0,0 l/m 2 min 0 min 926 W/m 23,0 km/h (4 Bft)
04.07.2015 13:30 37,3 C 34,4 C 44 % 0 lf 1017,1 hPa 0,0 l/m 2 min 0 min 905 W/m 16,7 km/h (3 Bft)
04.07.2015 13:32 37,3 C 34,4 C 44 % 0 lf 1017,1 hPa 0,0 l/m 2 min 0 min 901 W/m 12,6 km/h (3 Bft)
04.07.2015 13:34 37,3 C 33,9 C 43 % 0 lf 1017,1 hPa 0,0 l/m 2 min 0 min 897 W/m 23,0 km/h (4 Bft)
04.07.2015 13:36 37,3 C 33,9 C 43 % 0 lf 1017,1 hPa 0,0 l/m 2 min 0 min 911 W/m 18,8 km/h (3 Bft)
04.07.2015 13:38 37,3 C 33,9 C 43 % 0 lf 1017,1 hPa 0,0 l/m 2 min 0 min 903 W/m 27,2 km/h (4 Bft)
04.07.2015 13:40 37,3 C 33,9 C 44 % 0 lf 1017,1 hPa 0,0 l/m 2 min 0 min 901 W/m 20,9 km/h (4 Bft)
04.07.2015 13:42 37,3 C 34,4 C 43 % 0 lf 1017,1 hPa 0,0 l/m 2 min 0 min 893 W/m 20,9 km/h (4 Bft)
04.07.2015 13:44 37,3 C 34,4 C 44 % 0 lf 1017,2 hPa 0,0 l/m 2 min 0 min 885 W/m 25,1 km/h (4 Bft)
04.07.2015 13:46 37,3 C 33,9 C 44 % 0 lf 1017,2 hPa 0,0 l/m 2 min 0 min 879 W/m 23,0 km/h (4 Bft)
04.07.2015 13:48 37,3 C 33,9 C 43 % 0 lf 1017,2 hPa 0,0 l/m 2 min 0 min 883 W/m 23,0 km/h (4 Bft)
04.07.2015 13:50 37,3 C 34,4 C 45 % 0 lf 1017,1 hPa 0,0 l/m 2 min 0 min 883 W/m 16,7 km/h (3 Bft)
04.07.2015 13:52 37,4 C 34,4 C 44 % 0 lf 1017,1 hPa 0,0 l/m 2 min 0 min 877 W/m 18,8 km/h (3 Bft)
04.07.2015 13:54 37,4 C 33,9 C 45 % 0 lf 1017,1 hPa 0,0 l/m 2 min 0 min 880 W/m 18,8 km/h (3 Bft)
04.07.2015 13:56 37,4 C 33,9 C 45 % 0 lf 1017,1 hPa 0,0 l/m 2 min 0 min 883 W/m 16,7 km/h (3 Bft)
04.07.2015 13:58 37,5 C 33,9 C 44 % 0 lf 1017,1 hPa 0,0 l/m 2 min 0 min 884 W/m 14,6 km/h (3 Bft)
04.07.2015 14:00 37,6 C 34,4 C 43 % 0 lf 1017,1 hPa 0,0 l/m 2 min 0 min 876 W/m 20,9 km/h (4 Bft)
04.07.2015 14:02 37,5 C 33,9 C 43 % 0 lf 1017,1 hPa 0,0 l/m 2 min 0 min 877 W/m 14,6 km/h (3 Bft)
04.07.2015 14:04 37,6 C 34,4 C 44 % 0 lf 1017,1 hPa 0,0 l/m 2 min 0 min 876 W/m 16,7 km/h (3 Bft)
04.07.2015 14:06 37,6 C 34,4 C 44 % 0 lf 1017,1 hPa 0,0 l/m 2 min 0 min 867 W/m 16,7 km/h (3 Bft)
04.07.2015 14:08 37,6 C 33,9 C 46 % 0 lf 1017,1 hPa 0,0 l/m 2 min 0 min 876 W/m 20,9 km/h (4 Bft)
04.07.2015 14:10 37,6 C 34,4 C 45 % 0 lf 1017,1 hPa 0,0 l/m 2 min 0 min 863 W/m 18,8 km/h (3 Bft)
04.07.2015 14:12 37,6 C 34,4 C 44 % 0 lf 1017,1 hPa 0,0 l/m 2 min 0 min 870 W/m 23,0 km/h (4 Bft)
04.07.2015 14:14 37,7 C 35,0 C 42 % 0 lf 1017,1 hPa 0,0 l/m 2 min 0 min 866 W/m 16,7 km/h (3 Bft)
04.07.2015 14:16 37,7 C 36,1 C 44 % 0 lf 1017,2 hPa 0,0 l/m 2 min 0 min 866 W/m 16,7 km/h (3 Bft)
04.07.2015 14:18 37,8 C 36,1 C 44 % 0 lf 1017,2 hPa 0,0 l/m 2 min 0 min 865 W/m 16,7 km/h (3 Bft)
04.07.2015 14:20 37,8 C 35,0 C 42 % 0 lf 1017,2 hPa 0,0 l/m 2 min 0 min 864 W/m 18,8 km/h (3 Bft)
04.07.2015 14:22 37,9 C 35,0 C 43 % 0 lf 1017,2 hPa 0,0 l/m 2 min 0 min 862 W/m 16,7 km/h (3 Bft)
04.07.2015 14:24 37,9 C 34,4 C 43 % 0 lf 1017,3 hPa 0,0 l/m 2 min 0 min 850 W/m 16,7 km/h (3 Bft)
04.07.2015 14:26 37,8 C 34,4 C 44 % 0 lf 1017,3 hPa 0,0 l/m 2 min 0 min 838 W/m 20,9 km/h (4 Bft)
04.07.2015 14:28 37,8 C 34,4 C 44 % 0 lf 1017,2 hPa 0,0 l/m 2 min 0 min 836 W/m 16,7 km/h (3 Bft)
04.07.2015 14:30 37,8 C 34,4 C 43 % 0 lf 1017,2 hPa 0,0 l/m 2 min 0 min 837 W/m 23,0 km/h (4 Bft)
04.07.2015 14:32 37,8 C 34,4 C 44 % 0 lf 1017,2 hPa 0,0 l/m 2 min 0 min 837 W/m 16,7 km/h (3 Bft)
04.07.2015 14:34 37,9 C 34,4 C 42 % 0 lf 1017,3 hPa 0,0 l/m 2 min 0 min 840 W/m 20,9 km/h (4 Bft)
04.07.2015 14:36 37,9 C 34,4 C 42 % 0 lf 1017,2 hPa 0,0 l/m 2 min 0 min 837 W/m 16,7 km/h (3 Bft)
04.07.2015 14:38 37,9 C 34,4 C 41 % 0 lf 1017,2 hPa 0,0 l/m 2 min 0 min 846 W/m 18,8 km/h (3 Bft)
04.07.2015 14:40 37,9 C 34,4 C 42 % 0 lf 1017,3 hPa 0,0 l/m 2 min 0 min 833 W/m 20,9 km/h (4 Bft)
04.07.2015 14:42 37,9 C 34,4 C 42 % 0 lf 1017,3 hPa 0,0 l/m 2 min 0 min 830 W/m 10,5 km/h (2 Bft)
04.07.2015 14:44 37,9 C 34,4 C 43 % 0 lf 1017,3 hPa 0,0 l/m 2 min 0 min 833 W/m 18,8 km/h (3 Bft)
04.07.2015 14:46 37,9 C 34,4 C 42 % 0 lf 1017,3 hPa 0,0 l/m 2 min 0 min 831 W/m 20,9 km/h (4 Bft)
04.07.2015 14:48 37,9 C 34,4 C 42 % 0 lf 1017,2 hPa 0,0 l/m 2 min 0 min 828 W/m 18,8 km/h (3 Bft)
04.07.2015 14:50 37,9 C 34,4 C 40 % 0 lf 1017,3 hPa 0,0 l/m 2 min 0 min 824 W/m 18,8 km/h (3 Bft)
04.07.2015 14:52 37,9 C 35,0 C 41 % 0 lf 1017,3 hPa 0,0 l/m 2 min 0 min 814 W/m 18,8 km/h (3 Bft)
04.07.2015 14:54 37,9 C 34,4 C 40 % 0 lf 1017,3 hPa 0,0 l/m 2 min 0 min 796 W/m 16,7 km/h (3 Bft)
04.07.2015 14:56 37,9 C 34,4 C 40 % 0 lf 1017,3 hPa 0,0 l/m 2 min 0 min 822 W/m 10,5 km/h (2 Bft)
04.07.2015 14:58 37,9 C 35,0 C 42 % 0 lf 1017,3 hPa 0,0 l/m 2 min 0 min 832 W/m 20,9 km/h (4 Bft)
04.07.2015 15:00 38,0 C 35,0 C 41 % 0 lf 1017,3 hPa 0,0 l/m 2 min 0 min 822 W/m 23,0 km/h (4 Bft)
04.07.2015 15:02 38,0 C 35,0 C 40 % 0 lf 1017,3 hPa 0,0 l/m 2 min 0 min 815 W/m 18,8 km/h (3 Bft)
04.07.2015 15:04 38,1 C 35,0 C 41 % 0 lf 1017,3 hPa 0,0 l/m 2 min 0 min 804 W/m 20,9 km/h (4 Bft)
04.07.2015 15:06 38,0 C 34,4 C 40 % 0 lf 1017,4 hPa 0,0 l/m 2 min 0 min 795 W/m 25,1 km/h (4 Bft)
04.07.2015 15:08 38,1 C 34,4 C 40 % 0 lf 1017,4 hPa 0,0 l/m 2 min 0 min 801 W/m 23,0 km/h (4 Bft)
04.07.2015 15:10 38,1 C 34,4 C 40 % 0 lf 1017,4 hPa 0,0 l/m 2 min 0 min 800 W/m 18,8 km/h (3 Bft)
04.07.2015 15:12 38,1 C 35,0 C 41 % 0 lf 1017,4 hPa 0,0 l/m 2 min 0 min 800 W/m 14,6 km/h (3 Bft)
04.07.2015 15:14 38,1 C 35,0 C 41 % 0 lf 1017,4 hPa 0,0 l/m 2 min 0 min 798 W/m 16,7 km/h (3 Bft)
04.07.2015 15:16 38,1 C 35,0 C 41 % 0 lf 1017,4 hPa 0,0 l/m 2 min 0 min 786 W/m 14,6 km/h (3 Bft)
04.07.2015 15:18 38,2 C 35,0 C 43 % 0 lf 1017,4 hPa 0,0 l/m 2 min 0 min 790 W/m 18,8 km/h (3 Bft)
04.07.2015 15:20 38,2 C 35,0 C 42 % 0 lf 1017,4 hPa 0,0 l/m 2 min 0 min 798 W/m 12,6 km/h (3 Bft)
04.07.2015 15:22 38,2 C 35,0 C 41 % 0 lf 1017,4 hPa 0,0 l/m 2 min 0 min 793 W/m 16,7 km/h (3 Bft)
04.07.2015 15:24 38,3 C 35,0 C 41 % 0 lf 1017,4 hPa 0,0 l/m 2 min 0 min 785 W/m 20,9 km/h (4 Bft)
04.07.2015 15:26 38,3 C 34,4 C 40 % 0 lf 1017,4 hPa 0,0 l/m 2 min 0 min 782 W/m 14,6 km/h (3 Bft)
04.07.2015 15:28 38,3 C 34,4 C 41 % 0 lf 1017,4 hPa 0,0 l/m 2 min 0 min 783 W/m 20,9 km/h (4 Bft)
04.07.2015 15:30 38,3 C 34,4 C 39 % 0 lf 1017,4 hPa 0,0 l/m 2 min 0 min 771 W/m 20,9 km/h (4 Bft)
04.07.2015 15:32 38,2 C 34,4 C 41 % 0 lf 1017,4 hPa 0,0 l/m 2 min 0 min 769 W/m 14,6 km/h (3 Bft)
04.07.2015 15:34 38,2 C 34,4 C 40 % 0 lf 1017,5 hPa 0,0 l/m 2 min 0 min 771 W/m 20,9 km/h (4 Bft)
04.07.2015 15:36 38,2 C 34,4 C 38 % 0 lf 1017,4 hPa 0,0 l/m 2 min 0 min 772 W/m 18,8 km/h (3 Bft)
04.07.2015 15:38 38,2 C 35,0 C 39 % 0 lf 1017,4 hPa 0,0 l/m 2 min 0 min 760 W/m 18,8 km/h (3 Bft)
04.07.2015 15:40 38,1 C 35,0 C 41 % 0 lf 1017,4 hPa 0,0 l/m 2 min 0 min 755 W/m 18,8 km/h (3 Bft)
04.07.2015 15:42 38,1 C 35,0 C 40 % 0 lf 1017,4 hPa 0,0 l/m 2 min 0 min 749 W/m 14,6 km/h (3 Bft)
04.07.2015 15:44 38,1 C 35,0 C 39 % 0 lf 1017,4 hPa 0,0 l/m 2 min 0 min 746 W/m 18,8 km/h (3 Bft)
04.07.2015 15:46 38,1 C 35,0 C 40 % 0 lf 1017,4 hPa 0,0 l/m 2 min 0 min 737 W/m 18,8 km/h (3 Bft)
04.07.2015 15:48 38,1 C 35,0 C 40 % 0 lf 1017,4 hPa 0,0 l/m 2 min 0 min 736 W/m 14,6 km/h (3 Bft)
04.07.2015 15:50 38,1 C 35,0 C 39 % 0 lf 1017,3 hPa 0,0 l/m 2 min 0 min 724 W/m 10,5 km/h (2 Bft)
04.07.2015 15:52 38,1 C 35,0 C 40 % 0 lf 1017,4 hPa 0,0 l/m 2 min 0 min 725 W/m 10,5 km/h (2 Bft)
04.07.2015 15:54 38,1 C 35,0 C 40 % 0 lf 1017,4 hPa 0,0 l/m 2 min 0 min 727 W/m 16,7 km/h (3 Bft)
04.07.2015 15:56 38,1 C 35,6 C 40 % 0 lf 1017,5 hPa 0,0 l/m 2 min 0 min 724 W/m 20,9 km/h (4 Bft)
04.07.2015 15:58 38,1 C 35,6 C 38 % 0 lf 1017,5 hPa 0,0 l/m 2 min 0 min 735 W/m 16,7 km/h (3 Bft)
04.07.2015 16:00 38,1 C 35,6 C 41 % 0 lf 1017,4 hPa 0,0 l/m 2 min 0 min 731 W/m 18,8 km/h (3 Bft)
04.07.2015 16:02 38,0 C 35,0 C 41 % 0 lf 1017,5 hPa 0,0 l/m 2 min 0 min 465 W/m 18,8 km/h (3 Bft)
04.07.2015 16:04 37,9 C 35,6 C 41 % 0 lf 1017,5 hPa 0,0 l/m 0 min 0 min 346 W/m 12,6 km/h (3 Bft)
04.07.2015 16:06 37,8 C 37,2 C 42 % 0 lf 1017,5 hPa 0,0 l/m 2 min 0 min 689 W/m 25,1 km/h (4 Bft)
04.07.2015 16:08 37,8 C 38,3 C 41 % 0 lf 1017,5 hPa 0,0 l/m 2 min 0 min 728 W/m 20,9 km/h (4 Bft)
04.07.2015 16:10 37,8 C 38,3 C 40 % 0 lf 1017,5 hPa 0,0 l/m 2 min 0 min 718 W/m 14,6 km/h (3 Bft)
04.07.2015 16:12 37,8 C 37,8 C 42 % 0 lf 1017,5 hPa 0,0 l/m 2 min 0 min 715 W/m 12,6 km/h (3 Bft)
04.07.2015 16:14 37,8 C 37,8 C 40 % 0 lf 1017,5 hPa 0,0 l/m 2 min 0 min 701 W/m 12,6 km/h (3 Bft)
04.07.2015 16:16 37,9 C 38,3 C 40 % 0 lf 1017,6 hPa 0,0 l/m 2 min 0 min 700 W/m 12,6 km/h (3 Bft)
04.07.2015 16:18 37,9 C 38,9 C 40 % 0 lf 1017,5 hPa 0,0 l/m 2 min 0 min 692 W/m 10,5 km/h (2 Bft)
04.07.2015 16:20 37,9 C 38,9 C 40 % 0 lf 1017,5 hPa 0,0 l/m 2 min 0 min 676 W/m 14,6 km/h (3 Bft)
04.07.2015 16:22 37,9 C 39,4 C 40 % 0 lf 1017,5 hPa 0,0 l/m 2 min 0 min 681 W/m 18,8 km/h (3 Bft)
04.07.2015 16:24 37,9 C 39,4 C 40 % 0 lf 1017,5 hPa 0,0 l/m 2 min 0 min 682 W/m 18,8 km/h (3 Bft)
04.07.2015 16:26 37,9 C 37,8 C 41 % 0 lf 1017,6 hPa 0,0 l/m 2 min 0 min 677 W/m 18,8 km/h (3 Bft)
04.07.2015 16:28 38,0 C 37,2 C 43 % 0 lf 1017,6 hPa 0,0 l/m 2 min 0 min 682 W/m 18,8 km/h (3 Bft)
04.07.2015 16:30 38,1 C 36,1 C 43 % 0 lf 1017,6 hPa 0,0 l/m 2 min 0 min 662 W/m 10,5 km/h (2 Bft)
04.07.2015 16:32 38,2 C 36,1 C 44 % 0 lf 1017,6 hPa 0,0 l/m 2 min 0 min 675 W/m 10,5 km/h (2 Bft)
04.07.2015 16:34 38,2 C 35,6 C 42 % 0 lf 1017,6 hPa 0,0 l/m 2 min 0 min 652 W/m 12,6 km/h (3 Bft)
04.07.2015 16:36 38,3 C 35,0 C 41 % 0 lf 1017,6 hPa 0,0 l/m 2 min 0 min 603 W/m 10,5 km/h (2 Bft)
04.07.2015 16:38 38,3 C 35,0 C 41 % 0 lf 1017,6 hPa 0,0 l/m 2 min 0 min 443 W/m 14,6 km/h (3 Bft)
04.07.2015 16:40 38,3 C 34,4 C 41 % 0 lf 1017,6 hPa 0,0 l/m 0 min 0 min 196 W/m 10,5 km/h (2 Bft)
04.07.2015 16:42 38,2 C 33,9 C 41 % 0 lf 1017,5 hPa 0,0 l/m 0 min 0 min 164 W/m 14,6 km/h (3 Bft)
04.07.2015 16:44 38,2 C 33,9 C 40 % 0 lf 1017,5 hPa 0,0 l/m 0 min 0 min 156 W/m 12,6 km/h (3 Bft)
04.07.2015 16:46 38,0 C 33,3 C 40 % 0 lf 1017,5 hPa 0,0 l/m 0 min 0 min 150 W/m 10,5 km/h (2 Bft)
04.07.2015 16:48 37,9 C 33,3 C 41 % 0 lf 1017,5 hPa 0,0 l/m 0 min 0 min 142 W/m 8,4 km/h (2 Bft)
04.07.2015 16:50 37,8 C 33,3 C 42 % 0 lf 1017,4 hPa 0,0 l/m 0 min 0 min 138 W/m 4,2 km/h (1 Bft)
04.07.2015 16:52 37,6 C 32,8 C 42 % 0 lf 1017,4 hPa 0,0 l/m 0 min 0 min 139 W/m 10,5 km/h (2 Bft)
04.07.2015 16:54 37,4 C 32,8 C 43 % 0 lf 1017,4 hPa 0,0 l/m 0 min 0 min 144 W/m 6,3 km/h (2 Bft)
04.07.2015 16:56 37,2 C 32,2 C 43 % 0 lf 1017,4 hPa 0,0 l/m 0 min 0 min 150 W/m 8,4 km/h (2 Bft)
04.07.2015 16:58 37,1 C 32,2 C 44 % 0 lf 1017,5 hPa 0,0 l/m 0 min 0 min 150 W/m 6,3 km/h (2 Bft)
04.07.2015 17:00 36,9 C 32,2 C 43 % 0 lf 1017,4 hPa 0,0 l/m 0 min 0 min 154 W/m 8,4 km/h (2 Bft)
04.07.2015 17:02 36,8 C 32,2 C 43 % 0 lf 1017,4 hPa 0,0 l/m 0 min 0 min 163 W/m 8,4 km/h (2 Bft)
04.07.2015 17:04 36,7 C 32,2 C 43 % 0 lf 1017,3 hPa 0,0 l/m 0 min 0 min 185 W/m 8,4 km/h (2 Bft)
04.07.2015 17:06 36,7 C 32,2 C 42 % 0 lf 1017,3 hPa 0,0 l/m 0 min 0 min 224 W/m 8,4 km/h (2 Bft)
04.07.2015 17:08 36,6 C 32,2 C 43 % 0 lf 1017,3 hPa 0,0 l/m 0 min 0 min 258 W/m 8,4 km/h (2 Bft)
04.07.2015 17:10 36,4 C 32,8 C 43 % 0 lf 1017,3 hPa 0,0 l/m 0 min 0 min 305 W/m 6,3 km/h (2 Bft)
04.07.2015 17:12 36,4 C 33,3 C 43 % 0 lf 1017,4 hPa 0,0 l/m 2 min 0 min 380 W/m 10,5 km/h (2 Bft)
04.07.2015 17:14 36,3 C 33,9 C 43 % 0 lf 1017,3 hPa 0,0 l/m 2 min 0 min 413 W/m 8,4 km/h (2 Bft)
04.07.2015 17:16 36,3 C 33,9 C 45 % 0 lf 1017,3 hPa 0,0 l/m 2 min 0 min 377 W/m 8,4 km/h (2 Bft)
04.07.2015 17:18 36,3 C 34,4 C 43 % 0 lf 1017,4 hPa 0,0 l/m 2 min 0 min 423 W/m 10,5 km/h (2 Bft)
04.07.2015 17:20 36,3 C 34,4 C 43 % 0 lf 1017,3 hPa 0,0 l/m 2 min 0 min 538 W/m 8,4 km/h (2 Bft)
04.07.2015 17:22 36,3 C 34,4 C 43 % 0 lf 1017,4 hPa 0,0 l/m 2 min 0 min 521 W/m 10,5 km/h (2 Bft)
04.07.2015 17:24 36,3 C 34,4 C 43 % 0 lf 1017,4 hPa 0,0 l/m 2 min 0 min 464 W/m 12,6 km/h (3 Bft)
04.07.2015 17:26 36,3 C 34,4 C 43 % 0 lf 1017,4 hPa 0,0 l/m 2 min 0 min 406 W/m 14,6 km/h (3 Bft)
04.07.2015 17:28 36,2 C 33,9 C 43 % 0 lf 1017,3 hPa 0,0 l/m 2 min 0 min 335 W/m 16,7 km/h (3 Bft)
04.07.2015 17:30 36,2 C 33,9 C 43 % 0 lf 1017,3 hPa 0,0 l/m 0 min 0 min 286 W/m 14,6 km/h (3 Bft)
04.07.2015 17:32 36,2 C 33,3 C 43 % 0 lf 1017,3 hPa 0,0 l/m 0 min 0 min 227 W/m 10,5 km/h (2 Bft)
04.07.2015 17:34 36,2 C 33,3 C 43 % 0 lf 1017,4 hPa 0,0 l/m 0 min 0 min 212 W/m 12,6 km/h (3 Bft)
04.07.2015 17:36 36,2 C 32,8 C 43 % 0 lf 1017,4 hPa 0,0 l/m 0 min 0 min 213 W/m 8,4 km/h (2 Bft)
04.07.2015 17:38 36,2 C 32,8 C 44 % 0 lf 1017,5 hPa 0,0 l/m 0 min 0 min 228 W/m 12,6 km/h (3 Bft)
04.07.2015 17:40 36,2 C 32,8 C 43 % 0 lf 1017,5 hPa 0,0 l/m 0 min 0 min 227 W/m 6,3 km/h (2 Bft)
04.07.2015 17:42 36,1 C 32,8 C 44 % 0 lf 1017,5 hPa 0,0 l/m 0 min 0 min 275 W/m 6,3 km/h (2 Bft)
04.07.2015 17:44 36,1 C 32,8 C 42 % 0 lf 1017,4 hPa 0,0 l/m 0 min 0 min 262 W/m 6,3 km/h (2 Bft)
04.07.2015 17:46 36,1 C 32,8 C 43 % 0 lf 1017,3 hPa 0,0 l/m 2 min 0 min 327 W/m 10,5 km/h (2 Bft)
04.07.2015 17:48 36,1 C 33,3 C 43 % 0 lf 1017,3 hPa 0,0 l/m 2 min 0 min 554 W/m 12,6 km/h (3 Bft)
04.07.2015 17:50 36,1 C 33,3 C 45 % 0 lf 1017,3 hPa 0,0 l/m 2 min 0 min 663 W/m 10,5 km/h (2 Bft)
04.07.2015 17:52 36,1 C 33,3 C 45 % 0 lf 1017,2 hPa 0,0 l/m 2 min 0 min 671 W/m 8,4 km/h (2 Bft)
04.07.2015 17:54 36,2 C 33,3 C 43 % 0 lf 1017,3 hPa 0,0 l/m 2 min 0 min 499 W/m 6,3 km/h (2 Bft)
04.07.2015 17:56 36,2 C 33,3 C 46 % 0 lf 1017,4 hPa 0,0 l/m 2 min 0 min 334 W/m 4,2 km/h (1 Bft)
04.07.2015 17:58 36,2 C 33,3 C 44 % 0 lf 1017,3 hPa 0,0 l/m 2 min 0 min 403 W/m 6,3 km/h (2 Bft)
04.07.2015 18:00 36,3 C 32,8 C 45 % 0 lf 1017,3 hPa 0,0 l/m 2 min 0 min 508 W/m 10,5 km/h (2 Bft)
04.07.2015 18:02 36,3 C 32,8 C 45 % 0 lf 1017,3 hPa 0,0 l/m 2 min 0 min 433 W/m 12,6 km/h (3 Bft)
04.07.2015 18:05 36,3 C 32,8 C 45 % 0 lf 1017,3 hPa 0,0 l/m 2 min 0 min 425 W/m 10,5 km/h (2 Bft)
04.07.2015 18:08 36,3 C 32,2 C 45 % 0 lf 1017,3 hPa 0,0 l/m 2 min 0 min 463 W/m 10,5 km/h (2 Bft)
04.07.2015 18:10 36,3 C 32,2 C 46 % 0 lf 1017,2 hPa 0,0 l/m 2 min 0 min 468 W/m 10,5 km/h (2 Bft)
04.07.2015 18:12 36,2 C 32,2 C 45 % 0 lf 1017,3 hPa 0,0 l/m 2 min 0 min 460 W/m 10,5 km/h (2 Bft)
04.07.2015 18:14 36,2 C 32,2 C 45 % 0 lf 1017,3 hPa 0,0 l/m 2 min 0 min 448 W/m 12,6 km/h (3 Bft)
04.07.2015 18:16 36,2 C 32,2 C 45 % 0 lf 1017,3 hPa 0,0 l/m 2 min 0 min 440 W/m 16,7 km/h (3 Bft)
04.07.2015 18:18 36,2 C 32,2 C 44 % 0 lf 1017,3 hPa 0,0 l/m 2 min 0 min 437 W/m 14,6 km/h (3 Bft)
04.07.2015 18:20 36,2 C 32,2 C 45 % 0 lf 1017,2 hPa 0,0 l/m 2 min 0 min 433 W/m 8,4 km/h (2 Bft)
04.07.2015 18:22 36,1 C 32,2 C 44 % 0 lf 1017,2 hPa 0,0 l/m 2 min 0 min 422 W/m 8,4 km/h (2 Bft)
04.07.2015 18:24 36,1 C 32,2 C 45 % 0 lf 1017,1 hPa 0,0 l/m 2 min 0 min 395 W/m 6,3 km/h (2 Bft)
04.07.2015 18:26 36,1 C 32,2 C 45 % 0 lf 1017,2 hPa 0,0 l/m 2 min 0 min 281 W/m 8,4 km/h (2 Bft)
04.07.2015 18:28 36,1 C 32,2 C 44 % 0 lf 1017,2 hPa 0,0 l/m 2 min 0 min 283 W/m 10,5 km/h (2 Bft)
04.07.2015 18:30 36,1 C 31,7 C 44 % 0 lf 1017,1 hPa 0,0 l/m 2 min 0 min 267 W/m 10,5 km/h (2 Bft)
04.07.2015 18:32 36,1 C 31,7 C 44 % 0 lf 1017,1 hPa 0,0 l/m 2 min 0 min 261 W/m 10,5 km/h (2 Bft)
04.07.2015 18:34 36,0 C 31,7 C 45 % 0 lf 1017,1 hPa 0,0 l/m 2 min 0 min 257 W/m 8,4 km/h (2 Bft)
04.07.2015 18:36 36,0 C 31,7 C 45 % 0 lf 1017,1 hPa 0,0 l/m 0 min 0 min 208 W/m 12,6 km/h (3 Bft)
04.07.2015 18:38 35,9 C 31,1 C 45 % 0 lf 1017,2 hPa 0,0 l/m 0 min 0 min 212 W/m 16,7 km/h (3 Bft)
04.07.2015 18:40 35,9 C 31,1 C 45 % 0 lf 1017,2 hPa 0,0 l/m 2 min 0 min 218 W/m 14,6 km/h (3 Bft)
04.07.2015 18:42 35,8 C 31,1 C 46 % 0 lf 1017,2 hPa 0,0 l/m 2 min 0 min 227 W/m 14,6 km/h (3 Bft)
04.07.2015 18:44 35,8 C 31,1 C 45 % 0 lf 1017,2 hPa 0,0 l/m 2 min 0 min 247 W/m 10,5 km/h (2 Bft)
04.07.2015 18:46 35,7 C 31,1 C 46 % 0 lf 1017,1 hPa 0,0 l/m 2 min 0 min 230 W/m 6,3 km/h (2 Bft)
04.07.2015 18:48 35,7 C 31,1 C 47 % 0 lf 1017,1 hPa 0,0 l/m 0 min 0 min 160 W/m 6,3 km/h (2 Bft)
04.07.2015 18:50 35,6 C 31,1 C 47 % 0 lf 1017,1 hPa 0,0 l/m 0 min 0 min 123 W/m 4,2 km/h (1 Bft)
04.07.2015 18:52 35,6 C 30,6 C 46 % 0 lf 1017,0 hPa 0,0 l/m 0 min 0 min 155 W/m 6,3 km/h (2 Bft)
04.07.2015 18:54 35,5 C 30,6 C 46 % 0 lf 1017,1 hPa 0,0 l/m 2 min 0 min 242 W/m 4,2 km/h (1 Bft)
04.07.2015 18:56 35,4 C 30,6 C 46 % 0 lf 1017,1 hPa 0,0 l/m 2 min 0 min 266 W/m 6,3 km/h (2 Bft)
04.07.2015 18:58 35,4 C 30,6 C 48 % 0 lf 1017,0 hPa 0,0 l/m 2 min 0 min 302 W/m 4,2 km/h (1 Bft)
04.07.2015 19:00 35,4 C 30,6 C 49 % 0 lf 1017,1 hPa 0,0 l/m 2 min 0 min 291 W/m 6,3 km/h (2 Bft)
04.07.2015 19:02 35,3 C 31,1 C 48 % 0 lf 1017,1 hPa 0,0 l/m 2 min 0 min 322 W/m 10,5 km/h (2 Bft)
04.07.2015 19:04 35,3 C 31,1 C 48 % 0 lf 1017,1 hPa 0,0 l/m 2 min 0 min 324 W/m 6,3 km/h (2 Bft)
04.07.2015 19:06 35,3 C 31,1 C 49 % 0 lf 1017,1 hPa 0,0 l/m 2 min 0 min 293 W/m 10,5 km/h (2 Bft)
04.07.2015 19:08 35,2 C 31,1 C 49 % 0 lf 1017,1 hPa 0,0 l/m 2 min 0 min 269 W/m 6,3 km/h (2 Bft)
04.07.2015 19:10 35,2 C 31,1 C 49 % 0 lf 1017,2 hPa 0,0 l/m 2 min 0 min 289 W/m 6,3 km/h (2 Bft)
04.07.2015 19:12 35,1 C 31,1 C 48 % 0 lf 1017,1 hPa 0,0 l/m 2 min 0 min 274 W/m 8,4 km/h (2 Bft)
04.07.2015 19:14 35,1 C 31,1 C 49 % 0 lf 1017,2 hPa 0,0 l/m 2 min 0 min 249 W/m 6,3 km/h (2 Bft)
04.07.2015 19:16 35,1 C 31,1 C 48 % 0 lf 1017,1 hPa 0,0 l/m 2 min 0 min 260 W/m 6,3 km/h (2 Bft)
04.07.2015 19:18 35,1 C 31,1 C 49 % 0 lf 1017,2 hPa 0,0 l/m 2 min 0 min 265 W/m 10,5 km/h (2 Bft)
04.07.2015 19:20 35,0 C 31,1 C 49 % 0 lf 1017,2 hPa 0,0 l/m 2 min 0 min 289 W/m 10,5 km/h (2 Bft)
04.07.2015 19:22 35,0 C 31,1 C 49 % 0 lf 1017,2 hPa 0,0 l/m 2 min 0 min 290 W/m 12,6 km/h (3 Bft)
04.07.2015 19:24 34,9 C 31,1 C 48 % 0 lf 1017,2 hPa 0,0 l/m 2 min 0 min 280 W/m 10,5 km/h (2 Bft)
04.07.2015 19:26 34,9 C 31,1 C 48 % 0 lf 1017,1 hPa 0,0 l/m 2 min 0 min 272 W/m 10,5 km/h (2 Bft)
04.07.2015 19:28 34,9 C 31,1 C 48 % 0 lf 1017,1 hPa 0,0 l/m 2 min 0 min 262 W/m 12,6 km/h (3 Bft)
04.07.2015 19:30 34,8 C 31,1 C 48 % 0 lf 1017,1 hPa 0,0 l/m 2 min 0 min 249 W/m 14,6 km/h (3 Bft)
04.07.2015 19:32 34,8 C 30,6 C 49 % 0 lf 1017,1 hPa 0,0 l/m 2 min 0 min 245 W/m 6,3 km/h (2 Bft)
04.07.2015 19:34 34,8 C 30,6 C 50 % 0 lf 1017,2 hPa 0,0 l/m 2 min 0 min 244 W/m 8,4 km/h (2 Bft)
04.07.2015 19:36 34,8 C 31,1 C 50 % 0 lf 1017,2 hPa 0,0 l/m 2 min 0 min 238 W/m 10,5 km/h (2 Bft)
04.07.2015 19:38 34,8 C 30,6 C 50 % 0 lf 1017,2 hPa 0,0 l/m 2 min 0 min 227 W/m 6,3 km/h (2 Bft)
04.07.2015 19:40 34,7 C 30,6 C 49 % 0 lf 1017,2 hPa 0,0 l/m 2 min 0 min 208 W/m 12,6 km/h (3 Bft)
04.07.2015 19:42 34,7 C 30,6 C 49 % 0 lf 1017,2 hPa 0,0 l/m 2 min 0 min 170 W/m 10,5 km/h (2 Bft)
04.07.2015 19:44 34,7 C 30,6 C 49 % 0 lf 1017,2 hPa 0,0 l/m 2 min 0 min 140 W/m 12,6 km/h (3 Bft)
04.07.2015 19:46 34,6 C 30,6 C 48 % 0 lf 1017,2 hPa 0,0 l/m 0 min 0 min 123 W/m 10,5 km/h (2 Bft)
04.07.2015 19:48 34,6 C 30,0 C 49 % 0 lf 1017,2 hPa 0,0 l/m 0 min 0 min 104 W/m 6,3 km/h (2 Bft)
04.07.2015 19:50 34,6 C 30,0 C 50 % 0 lf 1017,3 hPa 0,0 l/m 0 min 0 min 95 W/m 18,8 km/h (3 Bft)
04.07.2015 19:52 34,5 C 30,6 C 52 % 0 lf 1017,3 hPa 0,0 l/m 0 min 0 min 90 W/m 18,8 km/h (3 Bft)
04.07.2015 19:54 34,4 C 30,6 C 53 % 0 lf 1017,3 hPa 0,0 l/m 0 min 0 min 88 W/m 16,7 km/h (3 Bft)
04.07.2015 19:56 34,3 C 30,6 C 53 % 0 lf 1017,4 hPa 0,0 l/m 0 min 0 min 88 W/m 18,8 km/h (3 Bft)
04.07.2015 19:58 34,3 C 30,6 C 53 % 0 lf 1017,4 hPa 0,0 l/m 0 min 0 min 92 W/m 20,9 km/h (4 Bft)
04.07.2015 20:00 34,2 C 30,6 C 53 % 0 lf 1017,4 hPa 0,0 l/m 0 min 0 min 99 W/m 18,8 km/h (3 Bft)
04.07.2015 20:02 34,1 C 30,6 C 53 % 0 lf 1017,5 hPa 0,0 l/m 0 min 0 min 102 W/m 12,6 km/h (3 Bft)
04.07.2015 20:04 33,9 C 30,6 C 53 % 0 lf 1017,5 hPa 0,0 l/m 0 min 0 min 104 W/m 10,5 km/h (2 Bft)
04.07.2015 20:05 33,9 C 30,6 C 53 % 0 lf 1017,5 hPa 0,0 l/m 0 min 0 min 105 W/m 18,8 km/h (3 Bft)
04.07.2015 20:06 33,8 C 30,6 C 53 % 0 lf 1017,5 hPa 0,0 l/m 0 min 0 min 105 W/m 16,7 km/h (3 Bft)
04.07.2015 20:07 33,8 C 30,6 C 53 % 0 lf 1017,4 hPa 0,0 l/m 0 min 0 min 104 W/m 14,6 km/h (3 Bft)
04.07.2015 20:08 33,7 C 30,6 C 53 % 0 lf 1017,5 hPa 0,0 l/m 0 min 0 min 102 W/m 12,6 km/h (3 Bft)
04.07.2015 20:09 33,7 C 30,6 C 53 % 0 lf 1017,4 hPa 0,0 l/m 0 min 0 min 100 W/m 10,5 km/h (2 Bft)
04.07.2015 20:10 33,6 C 30,0 C 54 % 0 lf 1017,4 hPa 0,0 l/m 0 min 0 min 98 W/m 10,5 km/h (2 Bft)
04.07.2015 20:11 33,6 C 30,0 C 53 % 0 lf 1017,4 hPa 0,0 l/m 0 min 0 min 96 W/m 12,6 km/h (3 Bft)
04.07.2015 20:12 33,5 C 30,0 C 53 % 0 lf 1017,4 hPa 0,0 l/m 0 min 0 min 91 W/m 8,4 km/h (2 Bft)
04.07.2015 20:13 33,4 C 30,0 C 54 % 0 lf 1017,5 hPa 0,0 l/m 0 min 0 min 90 W/m 8,4 km/h (2 Bft)
04.07.2015 20:14 33,4 C 30,0 C 54 % 0 lf 1017,4 hPa 0,0 l/m 0 min 0 min 86 W/m 12,6 km/h (3 Bft)
04.07.2015 20:15 33,4 C 30,0 C 54 % 0 lf 1017,4 hPa 0,0 l/m 0 min 0 min 83 W/m 16,7 km/h (3 Bft)
04.07.2015 20:16 33,3 C 30,0 C 54 % 0 lf 1017,4 hPa 0,0 l/m 0 min 0 min 81 W/m 10,5 km/h (2 Bft)
04.07.2015 20:17 33,3 C 30,0 C 54 % 0 lf 1017,4 hPa 0,0 l/m 0 min 0 min 77 W/m 14,6 km/h (3 Bft)
04.07.2015 20:18 33,2 C 30,0 C 54 % 0 lf 1017,5 hPa 0,0 l/m 0 min 0 min 76 W/m 8,4 km/h (2 Bft)
04.07.2015 20:19 33,2 C 30,0 C 54 % 0 lf 1017,4 hPa 0,0 l/m 0 min 0 min 74 W/m 12,6 km/h (3 Bft)
04.07.2015 20:20 33,2 C 30,0 C 54 % 0 lf 1017,4 hPa 0,0 l/m 0 min 0 min 72 W/m 8,4 km/h (2 Bft)
04.07.2015 20:21 33,1 C 30,0 C 54 % 0 lf 1017,4 hPa 0,0 l/m 0 min 0 min 70 W/m 12,6 km/h (3 Bft)
04.07.2015 20:22 33,1 C 29,4 C 55 % 0 lf 1017,5 hPa 0,0 l/m 0 min 0 min 69 W/m 14,6 km/h (3 Bft)
04.07.2015 20:23 33,0 C 29,4 C 55 % 0 lf 1017,5 hPa 0,0 l/m 0 min 0 min 67 W/m 10,5 km/h (2 Bft)
04.07.2015 20:24 33,0 C 29,4 C 55 % 0 lf 1017,6 hPa 0,0 l/m 0 min 0 min 65 W/m 14,6 km/h (3 Bft)
04.07.2015 20:25 32,9 C 29,4 C 55 % 0 lf 1017,5 hPa 0,0 l/m 0 min 0 min 63 W/m 12,6 km/h (3 Bft)
04.07.2015 20:26 32,9 C 29,4 C 55 % 0 lf 1017,6 hPa 0,0 l/m 0 min 0 min 63 W/m 14,6 km/h (3 Bft)
04.07.2015 20:27 32,8 C 29,4 C 55 % 0 lf 1017,5 hPa 0,0 l/m 0 min 0 min 62 W/m 14,6 km/h (3 Bft)
04.07.2015 20:28 32,8 C 29,4 C 55 % 0 lf 1017,6 hPa 0,0 l/m 0 min 0 min 62 W/m 10,5 km/h (2 Bft)
04.07.2015 20:29 32,7 C 28,9 C 56 % 0 lf 1017,6 hPa 0,0 l/m 0 min 0 min 60 W/m 12,6 km/h (3 Bft)
04.07.2015 20:30 32,7 C 28,9 C 56 % 0 lf 1017,6 hPa 0,0 l/m 0 min 0 min 58 W/m 10,5 km/h (2 Bft)
04.07.2015 20:31 32,7 C 28,9 C 55 % 0 lf 1017,5 hPa 0,0 l/m 0 min 0 min 58 W/m 12,6 km/h (3 Bft)
04.07.2015 20:32 32,6 C 28,9 C 55 % 0 lf 1017,6 hPa 0,0 l/m 0 min 0 min 58 W/m 8,4 km/h (2 Bft)
04.07.2015 20:33 32,6 C 28,9 C 55 % 0 lf 1017,6 hPa 0,0 l/m 0 min 0 min 56 W/m 12,6 km/h (3 Bft)
04.07.2015 20:34 32,5 C 28,9 C 55 % 0 lf 1017,6 hPa 0,0 l/m 0 min 0 min 56 W/m 10,5 km/h (2 Bft)
04.07.2015 20:35 32,4 C 28,9 C 55 % 0 lf 1017,6 hPa 0,0 l/m 0 min 0 min 56 W/m 10,5 km/h (2 Bft)
04.07.2015 20:36 32,4 C 28,9 C 55 % 0 lf 1017,6 hPa 0,0 l/m 0 min 0 min 54 W/m 12,6 km/h (3 Bft)
04.07.2015 20:37 32,4 C 28,9 C 55 % 0 lf 1017,6 hPa 0,0 l/m 0 min 0 min 54 W/m 6,3 km/h (2 Bft)
04.07.2015 20:38 32,3 C 28,9 C 55 % 0 lf 1017,6 hPa 0,0 l/m 0 min 0 min 53 W/m 8,4 km/h (2 Bft)
04.07.2015 20:39 32,3 C 28,9 C 55 % 0 lf 1017,7 hPa 0,0 l/m 0 min 0 min 53 W/m 10,5 km/h (2 Bft)
04.07.2015 20:40 32,3 C 28,3 C 55 % 0 lf 1017,7 hPa 0,0 l/m 0 min 0 min 51 W/m 12,6 km/h (3 Bft)
04.07.2015 20:41 32,2 C 28,3 C 55 % 0 lf 1017,7 hPa 0,0 l/m 0 min 0 min 49 W/m 8,4 km/h (2 Bft)
04.07.2015 20:42 32,2 C 28,3 C 55 % 0 lf 1017,7 hPa 0,0 l/m 0 min 0 min 47 W/m 8,4 km/h (2 Bft)
04.07.2015 20:43 32,2 C 28,3 C 54 % 0 lf 1017,7 hPa 0,0 l/m 0 min 0 min 47 W/m 14,6 km/h (3 Bft)
04.07.2015 20:44 32,1 C 28,3 C 55 % 0 lf 1017,7 hPa 0,0 l/m 0 min 0 min 46 W/m 10,5 km/h (2 Bft)
04.07.2015 20:45 32,1 C 28,3 C 54 % 0 lf 1017,7 hPa 0,0 l/m 0 min 0 min 44 W/m 6,3 km/h (2 Bft)
04.07.2015 20:46 32,0 C 28,3 C 53 % 0 lf 1017,7 hPa 0,0 l/m 0 min 0 min 44 W/m 10,5 km/h (2 Bft)
04.07.2015 20:47 31,9 C 28,3 C 51 % 0 lf 1017,7 hPa 0,0 l/m 0 min 0 min 42 W/m 12,6 km/h (3 Bft)
04.07.2015 20:48 31,9 C 28,3 C 51 % 0 lf 1017,7 hPa 0,0 l/m 0 min 0 min 40 W/m 14,6 km/h (3 Bft)
04.07.2015 20:49 31,8 C 28,3 C 51 % 0 lf 1017,7 hPa 0,0 l/m 0 min 0 min 40 W/m 12,6 km/h (3 Bft)
04.07.2015 20:50 31,8 C 28,3 C 50 % 0 lf 1017,8 hPa 0,0 l/m 0 min 0 min 39 W/m 10,5 km/h (2 Bft)
04.07.2015 20:51 31,7 C 28,3 C 50 % 0 lf 1017,8 hPa 0,0 l/m 0 min 0 min 39 W/m 10,5 km/h (2 Bft)
04.07.2015 20:52 31,7 C 28,3 C 50 % 0 lf 1017,7 hPa 0,0 l/m 0 min 0 min 36 W/m 10,5 km/h (2 Bft)
04.07.2015 20:53 31,7 C 28,3 C 50 % 0 lf 1017,8 hPa 0,0 l/m 0 min 0 min 35 W/m 12,6 km/h (3 Bft)
04.07.2015 20:54 31,6 C 27,8 C 50 % 0 lf 1017,8 hPa 0,0 l/m 0 min 0 min 33 W/m 20,9 km/h (4 Bft)
04.07.2015 20:55 31,6 C 27,8 C 49 % 0 lf 1017,8 hPa 0,0 l/m 0 min 0 min 33 W/m 10,5 km/h (2 Bft)
04.07.2015 20:56 31,5 C 27,8 C 50 % 0 lf 1017,8 hPa 0,0 l/m 0 min 0 min 32 W/m 8,4 km/h (2 Bft)
04.07.2015 20:57 31,5 C 27,8 C 49 % 0 lf 1017,7 hPa 0,0 l/m 0 min 0 min 32 W/m 14,6 km/h (3 Bft)
04.07.2015 20:58 31,4 C 27,8 C 49 % 0 lf 1017,7 hPa 0,0 l/m 0 min 0 min 32 W/m 8,4 km/h (2 Bft)
04.07.2015 20:59 31,4 C 27,8 C 49 % 0 lf 1017,7 hPa 0,0 l/m 0 min 0 min 32 W/m 8,4 km/h (2 Bft)
04.07.2015 21:00 31,3 C 27,8 C 49 % 0 lf 1017,8 hPa 0,0 l/m 0 min 0 min 32 W/m 8,4 km/h (2 Bft)
04.07.2015 21:01 31,3 C 28,3 C 49 % 0 lf 1017,8 hPa 0,0 l/m 0 min 0 min 32 W/m 6,3 km/h (2 Bft)
04.07.2015 21:02 31,3 C 27,8 C 50 % 0 lf 1017,8 hPa 0,0 l/m 0 min 0 min 32 W/m 10,5 km/h (2 Bft)
04.07.2015 21:03 31,2 C 27,8 C 49 % 0 lf 1017,8 hPa 0,0 l/m 0 min 0 min 32 W/m 12,6 km/h (3 Bft)
04.07.2015 21:04 31,2 C 27,8 C 50 % 0 lf 1017,8 hPa 0,0 l/m 0 min 0 min 31 W/m 10,5 km/h (2 Bft)
04.07.2015 21:05 31,2 C 27,8 C 50 % 0 lf 1017,8 hPa 0,0 l/m 0 min 0 min 30 W/m 8,4 km/h (2 Bft)
04.07.2015 21:06 31,1 C 27,8 C 50 % 0 lf 1017,8 hPa 0,0 l/m 0 min 0 min 30 W/m 8,4 km/h (2 Bft)
04.07.2015 21:07 31,1 C 27,8 C 50 % 0 lf 1017,8 hPa 0,0 l/m 0 min 0 min 30 W/m 10,5 km/h (2 Bft)
04.07.2015 21:08 31,1 C 27,8 C 50 % 0 lf 1017,8 hPa 0,0 l/m 0 min 0 min 28 W/m 10,5 km/h (2 Bft)
04.07.2015 21:09 31,0 C 27,8 C 50 % 0 lf 1017,8 hPa 0,0 l/m 0 min 0 min 26 W/m 12,6 km/h (3 Bft)
04.07.2015 21:10 31,0 C 27,8 C 51 % 0 lf 1017,8 hPa 0,0 l/m 0 min 0 min 26 W/m 6,3 km/h (2 Bft)
04.07.2015 21:11 31,0 C 27,2 C 51 % 0 lf 1017,9 hPa 0,0 l/m 0 min 0 min 23 W/m 12,6 km/h (3 Bft)
04.07.2015 21:12 30,9 C 27,8 C 50 % 0 lf 1017,9 hPa 0,0 l/m 0 min 0 min 23 W/m 8,4 km/h (2 Bft)
04.07.2015 21:13 30,9 C 27,2 C 50 % 0 lf 1017,9 hPa 0,0 l/m 0 min 0 min 21 W/m 12,6 km/h (3 Bft)
04.07.2015 21:14 30,9 C 25,6 C 51 % 0 lf 1017,9 hPa 0,0 l/m 0 min 0 min 19 W/m 18,8 km/h (3 Bft)
04.07.2015 21:15 30,8 C 23,9 C 51 % 0 lf 1018,0 hPa 0,0 l/m 0 min 0 min 19 W/m 12,6 km/h (3 Bft)
04.07.2015 21:16 30,8 C 23,3 C 51 % 0 lf 1017,9 hPa 0,0 l/m 0 min 0 min 17 W/m 14,6 km/h (3 Bft)
04.07.2015 21:17 30,7 C 22,8 C 51 % 0 lf 1017,9 hPa 0,0 l/m 0 min 0 min 16 W/m 14,6 km/h (3 Bft)
04.07.2015 21:18 30,7 C 22,8 C 52 % 0 lf 1017,9 hPa 0,0 l/m 0 min 0 min 16 W/m 10,5 km/h (2 Bft)
04.07.2015 21:19 30,6 C 22,2 C 52 % 0 lf 1017,9 hPa 0,0 l/m 0 min 0 min 14 W/m 10,5 km/h (2 Bft)
04.07.2015 21:20 30,6 C 21,7 C 54 % 0 lf 1017,9 hPa 0,0 l/m 0 min 0 min 14 W/m 8,4 km/h (2 Bft)
04.07.2015 21:21 30,6 C 21,7 C 55 % 0 lf 1018,0 hPa 0,0 l/m 0 min 1 min 14 W/m 8,4 km/h (2 Bft)
04.07.2015 21:22 30,6 C 21,7 C 55 % 0 lf 1018,0 hPa 0,0 l/m 0 min 1 min 12 W/m 12,6 km/h (3 Bft)
04.07.2015 21:23 30,6 C 21,7 C 55 % 0 lf 1017,9 hPa 0,0 l/m 0 min 0 min 12 W/m 12,6 km/h (3 Bft)
04.07.2015 21:24 30,5 C 21,1 C 55 % 0 lf 1017,9 hPa 0,0 l/m 0 min 0 min 12 W/m 12,6 km/h (3 Bft)
04.07.2015 21:25 30,4 C 21,1 C 54 % 0 lf 1018,0 hPa 0,0 l/m 0 min 0 min 11 W/m 10,5 km/h (2 Bft)
04.07.2015 21:26 30,4 C 21,1 C 56 % 0 lf 1018,0 hPa 0,0 l/m 0 min 0 min 11 W/m 10,5 km/h (2 Bft)
04.07.2015 21:27 30,3 C 21,1 C 56 % 0 lf 1018,0 hPa 0,0 l/m 0 min 0 min 11 W/m 10,5 km/h (2 Bft)
04.07.2015 21:28 30,2 C 21,1 C 55 % 0 lf 1018,0 hPa 0,0 l/m 0 min 0 min 11 W/m 14,6 km/h (3 Bft)
04.07.2015 21:29 30,2 C 21,7 C 54 % 0 lf 1018,0 hPa 0,0 l/m 0 min 0 min 11 W/m 14,6 km/h (3 Bft)
04.07.2015 21:30 30,1 C 21,7 C 54 % 0 lf 1018,0 hPa 0,0 l/m 0 min 0 min 9 W/m 14,6 km/h (3 Bft)
04.07.2015 21:31 30,1 C 21,7 C 55 % 0 lf 1018,0 hPa 0,0 l/m 0 min 0 min 9 W/m 14,6 km/h (3 Bft)
04.07.2015 21:32 30,0 C 21,7 C 55 % 0 lf 1018,0 hPa 0,0 l/m 0 min 0 min 9 W/m 10,5 km/h (2 Bft)
04.07.2015 21:33 29,9 C 22,2 C 55 % 0 lf 1018,0 hPa 0,0 l/m 0 min 0 min 9 W/m 18,8 km/h (3 Bft)
04.07.2015 21:34 29,9 C 22,8 C 54 % 0 lf 1018,0 hPa 0,0 l/m 0 min 0 min 9 W/m 12,6 km/h (3 Bft)
04.07.2015 21:35 29,8 C 23,3 C 54 % 0 lf 1018,0 hPa 0,0 l/m 0 min 0 min 9 W/m 18,8 km/h (3 Bft)
04.07.2015 21:36 29,8 C 23,3 C 55 % 0 lf 1018,0 hPa 0,0 l/m 0 min 0 min 9 W/m 16,7 km/h (3 Bft)
04.07.2015 21:37 29,7 C 22,8 C 55 % 0 lf 1018,1 hPa 0,0 l/m 0 min 0 min 7 W/m 14,6 km/h (3 Bft)
04.07.2015 21:38 29,6 C 22,8 C 55 % 0 lf 1018,1 hPa 0,0 l/m 0 min 0 min 7 W/m 10,5 km/h (2 Bft)
04.07.2015 21:39 29,6 C 23,3 C 55 % 0 lf 1018,0 hPa 0,0 l/m 0 min 0 min 7 W/m 23,0 km/h (4 Bft)
04.07.2015 21:40 29,4 C 23,3 C 55 % 0 lf 1018,1 hPa 0,0 l/m 0 min 0 min 7 W/m 18,8 km/h (3 Bft)
04.07.2015 21:41 29,4 C 23,3 C 56 % 0 lf 1018,0 hPa 0,0 l/m 0 min 0 min 7 W/m 18,8 km/h (3 Bft)
04.07.2015 21:42 29,3 C 23,3 C 56 % 0 lf 1018,1 hPa 0,0 l/m 0 min 0 min 7 W/m 12,6 km/h (3 Bft)
04.07.2015 21:43 29,3 C 23,9 C 56 % 0 lf 1018,1 hPa 0,0 l/m 0 min 0 min 7 W/m 16,7 km/h (3 Bft)
04.07.2015 21:44 29,2 C 23,9 C 56 % 0 lf 1018,1 hPa 0,0 l/m 0 min 0 min 7 W/m 14,6 km/h (3 Bft)
04.07.2015 21:45 29,2 C 24,4 C 56 % 0 lf 1018,1 hPa 0,0 l/m 0 min 0 min 7 W/m 16,7 km/h (3 Bft)
04.07.2015 21:46 29,1 C 24,4 C 56 % 0 lf 1018,1 hPa 0,0 l/m 0 min 0 min 7 W/m 14,6 km/h (3 Bft)
04.07.2015 21:47 29,1 C 25,0 C 56 % 0 lf 1018,2 hPa 0,0 l/m 0 min 0 min 7 W/m 14,6 km/h (3 Bft)
04.07.2015 21:48 29,0 C 24,4 C 56 % 0 lf 1018,2 hPa 0,0 l/m 0 min 0 min 5 W/m 12,6 km/h (3 Bft)
04.07.2015 21:49 29,0 C 24,4 C 56 % 0 lf 1018,2 hPa 0,0 l/m 0 min 0 min 5 W/m 16,7 km/h (3 Bft)
04.07.2015 21:50 28,9 C 24,4 C 56 % 0 lf 1018,2 hPa 0,0 l/m 0 min 0 min 5 W/m 14,6 km/h (3 Bft)
04.07.2015 21:51 28,9 C 23,9 C 56 % 0 lf 1018,2 hPa 0,0 l/m 0 min 0 min 5 W/m 14,6 km/h (3 Bft)
04.07.2015 21:52 28,8 C 23,3 C 56 % 0 lf 1018,2 hPa 0,0 l/m 0 min 0 min 5 W/m 18,8 km/h (3 Bft)
04.07.2015 21:53 28,8 C 23,3 C 56 % 0 lf 1018,2 hPa 0,0 l/m 0 min 0 min 5 W/m 18,8 km/h (3 Bft)
04.07.2015 21:54 28,8 C 23,9 C 56 % 0 lf 1018,2 hPa 0,0 l/m 0 min 0 min 5 W/m 20,9 km/h (4 Bft)
04.07.2015 21:55 28,7 C 23,9 C 56 % 0 lf 1018,2 hPa 0,0 l/m 0 min 0 min 5 W/m 14,6 km/h (3 Bft)
04.07.2015 21:56 28,7 C 23,9 C 56 % 0 lf 1018,2 hPa 0,0 l/m 0 min 0 min 5 W/m 16,7 km/h (3 Bft)
04.07.2015 21:57 28,6 C 24,4 C 56 % 0 lf 1018,1 hPa 0,0 l/m 0 min 0 min 5 W/m 20,9 km/h (4 Bft)
04.07.2015 21:58 28,6 C 24,4 C 56 % 0 lf 1018,2 hPa 0,0 l/m 0 min 0 min 5 W/m 16,7 km/h (3 Bft)
04.07.2015 22:00 28,5 C 24,4 C 56 % 0 lf 1018,2 hPa 0,0 l/m 0 min 0 min 5 W/m 14,6 km/h (3 Bft)
04.07.2015 22:01 28,5 C 25,0 C 56 % 0 lf 1018,2 hPa 0,0 l/m 0 min 0 min 5 W/m 16,7 km/h (3 Bft)
04.07.2015 22:02 28,4 C 25,0 C 56 % 0 lf 1018,2 hPa 0,0 l/m 0 min 0 min 5 W/m 25,1 km/h (4 Bft)
04.07.2015 22:03 28,4 C 24,4 C 57 % 0 lf 1018,1 hPa 0,0 l/m 0 min 0 min 0 W/m 20,9 km/h (4 Bft)
04.07.2015 22:04 28,3 C 25,0 C 56 % 0 lf 1018,2 hPa 0,0 l/m 0 min 0 min 0 W/m 20,9 km/h (4 Bft)
04.07.2015 22:05 28,3 C 25,0 C 56 % 0 lf 1018,2 hPa 0,0 l/m 0 min 0 min 0 W/m 16,7 km/h (3 Bft)
04.07.2015 22:06 28,2 C 25,0 C 57 % 0 lf 1018,2 hPa 0,0 l/m 0 min 0 min 0 W/m 18,8 km/h (3 Bft)
04.07.2015 22:07 28,2 C 25,0 C 57 % 0 lf 1018,2 hPa 0,0 l/m 0 min 0 min 0 W/m 12,6 km/h (3 Bft)
04.07.2015 22:08 28,2 C 25,0 C 57 % 0 lf 1018,2 hPa 0,0 l/m 0 min 0 min 0 W/m 18,8 km/h (3 Bft)
04.07.2015 22:09 28,1 C 25,0 C 57 % 0 lf 1018,2 hPa 0,0 l/m 0 min 0 min 0 W/m 16,7 km/h (3 Bft)
04.07.2015 22:10 28,1 C 24,4 C 57 % 0 lf 1018,3 hPa 0,0 l/m 0 min 0 min 0 W/m 12,6 km/h (3 Bft)
04.07.2015 22:11 28,1 C 24,4 C 57 % 0 lf 1018,4 hPa 0,0 l/m 0 min 0 min 0 W/m 12,6 km/h (3 Bft)
04.07.2015 22:12 28,1 C 24,4 C 58 % 0 lf 1018,4 hPa 0,0 l/m 0 min 0 min 0 W/m 10,5 km/h (2 Bft)
04.07.2015 22:14 28,0 C 23,9 C 58 % 0 lf 1018,4 hPa 0,0 l/m 0 min 0 min 0 W/m 14,6 km/h (3 Bft)
04.07.2015 22:16 27,9 C 24,4 C 58 % 0 lf 1018,4 hPa 0,0 l/m 0 min 0 min 0 W/m 12,6 km/h (3 Bft)
04.07.2015 22:18 27,9 C 23,9 C 58 % 0 lf 1018,4 hPa 0,0 l/m 0 min 0 min 0 W/m 10,5 km/h (2 Bft)
04.07.2015 22:20 27,8 C 23,9 C 58 % 0 lf 1018,4 hPa 0,0 l/m 0 min 0 min 0 W/m 12,6 km/h (3 Bft)
04.07.2015 22:22 27,8 C 24,4 C 58 % 0 lf 1018,5 hPa 0,0 l/m 0 min 0 min 0 W/m 20,9 km/h (4 Bft)
04.07.2015 22:24 27,7 C 24,4 C 59 % 0 lf 1018,5 hPa 0,0 l/m 0 min 0 min 0 W/m 16,7 km/h (3 Bft)
04.07.2015 22:26 27,7 C 24,4 C 59 % 0 lf 1018,5 hPa 0,0 l/m 0 min 0 min 0 W/m 12,6 km/h (3 Bft)
04.07.2015 22:28 27,6 C 24,4 C 59 % 0 lf 1018,5 hPa 0,0 l/m 0 min 0 min 0 W/m 10,5 km/h (2 Bft)
04.07.2015 22:30 27,5 C 24,4 C 59 % 0 lf 1018,4 hPa 0,0 l/m 0 min 0 min 0 W/m 14,6 km/h (3 Bft)
04.07.2015 22:32 27,4 C 24,4 C 60 % 0 lf 1018,4 hPa 0,0 l/m 0 min 0 min 0 W/m 18,8 km/h (3 Bft)
04.07.2015 22:34 27,4 C 24,4 C 59 % 0 lf 1018,4 hPa 0,0 l/m 0 min 0 min 0 W/m 20,9 km/h (4 Bft)
04.07.2015 22:36 27,3 C 24,4 C 60 % 0 lf 1018,5 hPa 0,0 l/m 0 min 0 min 0 W/m 16,7 km/h (3 Bft)
04.07.2015 22:38 27,3 C 24,4 C 60 % 0 lf 1018,5 hPa 0,0 l/m 0 min 0 min 0 W/m 20,9 km/h (4 Bft)
04.07.2015 22:40 27,2 C 24,4 C 60 % 0 lf 1018,5 hPa 0,0 l/m 0 min 0 min 0 W/m 16,7 km/h (3 Bft)
04.07.2015 22:42 27,2 C 24,4 C 60 % 0 lf 1018,5 hPa 0,0 l/m 0 min 0 min 0 W/m 16,7 km/h (3 Bft)
04.07.2015 22:44 27,1 C 24,4 C 60 % 0 lf 1018,4 hPa 0,0 l/m 0 min 0 min 0 W/m 14,6 km/h (3 Bft)
04.07.2015 22:46 27,1 C 24,4 C 60 % 0 lf 1018,5 hPa 0,0 l/m 0 min 0 min 0 W/m 12,6 km/h (3 Bft)
04.07.2015 22:48 27,0 C 24,4 C 61 % 0 lf 1018,5 hPa 0,0 l/m 0 min 0 min 0 W/m 12,6 km/h (3 Bft)
04.07.2015 22:50 26,9 C 23,9 C 61 % 0 lf 1018,5 hPa 0,0 l/m 0 min 0 min 0 W/m 14,6 km/h (3 Bft)
04.07.2015 22:52 26,9 C 23,9 C 61 % 0 lf 1018,5 hPa 0,0 l/m 0 min 0 min 0 W/m 10,5 km/h (2 Bft)
04.07.2015 22:54 26,9 C 23,9 C 62 % 0 lf 1018,5 hPa 0,0 l/m 0 min 0 min 0 W/m 12,6 km/h (3 Bft)
04.07.2015 22:56 26,8 C 23,9 C 61 % 0 lf 1018,5 hPa 0,0 l/m 0 min 0 min 0 W/m 16,7 km/h (3 Bft)
04.07.2015 22:58 26,8 C 23,9 C 61 % 0 lf 1018,5 hPa 0,0 l/m 0 min 0 min 0 W/m 8,4 km/h (2 Bft)
04.07.2015 23:00 26,7 C 23,9 C 62 % 0 lf 1018,5 hPa 0,0 l/m 0 min 0 min 0 W/m 12,6 km/h (3 Bft)
04.07.2015 23:02 26,7 C 23,9 C 62 % 0 lf 1018,6 hPa 0,0 l/m 0 min 0 min 0 W/m 14,6 km/h (3 Bft)
04.07.2015 23:04 26,6 C 23,9 C 62 % 0 lf 1018,5 hPa 0,0 l/m 0 min 0 min 0 W/m 14,6 km/h (3 Bft)
04.07.2015 23:06 26,6 C 23,9 C 62 % 0 lf 1018,5 hPa 0,0 l/m 0 min 0 min 0 W/m 10,5 km/h (2 Bft)
04.07.2015 23:08 26,5 C 23,9 C 62 % 0 lf 1018,5 hPa 0,0 l/m 0 min 0 min 0 W/m 12,6 km/h (3 Bft)
04.07.2015 23:10 26,4 C 23,9 C 62 % 0 lf 1018,6 hPa 0,0 l/m 0 min 0 min 0 W/m 10,5 km/h (2 Bft)
04.07.2015 23:12 26,4 C 23,3 C 62 % 0 lf 1018,6 hPa 0,0 l/m 0 min 0 min 0 W/m 12,6 km/h (3 Bft)
04.07.2015 23:14 26,3 C 23,3 C 62 % 0 lf 1018,5 hPa 0,0 l/m 0 min 0 min 0 W/m 10,5 km/h (2 Bft)
04.07.2015 23:16 26,3 C 23,3 C 62 % 0 lf 1018,5 hPa 0,0 l/m 0 min 0 min 0 W/m 18,8 km/h (3 Bft)
04.07.2015 23:18 26,2 C 23,3 C 62 % 0 lf 1018,6 hPa 0,0 l/m 0 min 0 min 0 W/m 12,6 km/h (3 Bft)
04.07.2015 23:20 26,2 C 23,3 C 61 % 0 lf 1018,5 hPa 0,0 l/m 0 min 0 min 0 W/m 16,7 km/h (3 Bft)
04.07.2015 23:22 26,1 C 23,3 C 61 % 0 lf 1018,6 hPa 0,0 l/m 0 min 0 min 0 W/m 14,6 km/h (3 Bft)
04.07.2015 23:24 26,1 C 23,3 C 61 % 0 lf 1018,6 hPa 0,0 l/m 0 min 0 min 0 W/m 12,6 km/h (3 Bft)
04.07.2015 23:26 26,0 C 23,9 C 61 % 0 lf 1018,7 hPa 0,0 l/m 0 min 0 min 0 W/m 12,6 km/h (3 Bft)
04.07.2015 23:28 25,9 C 23,9 C 60 % 0 lf 1018,7 hPa 0,0 l/m 0 min 0 min 0 W/m 14,6 km/h (3 Bft)
04.07.2015 23:30 25,9 C 23,3 C 60 % 0 lf 1018,6 hPa 0,0 l/m 0 min 0 min 0 W/m 16,7 km/h (3 Bft)
04.07.2015 23:32 25,9 C 23,3 C 60 % 0 lf 1018,5 hPa 0,0 l/m 0 min 0 min 0 W/m 16,7 km/h (3 Bft)
04.07.2015 23:34 25,8 C 23,9 C 59 % 0 lf 1018,5 hPa 0,0 l/m 0 min 0 min 0 W/m 12,6 km/h (3 Bft)
04.07.2015 23:36 25,8 C 23,9 C 59 % 0 lf 1018,5 hPa 0,0 l/m 0 min 0 min 0 W/m 10,5 km/h (2 Bft)
04.07.2015 23:38 25,7 C 23,9 C 60 % 0 lf 1018,5 hPa 0,0 l/m 0 min 0 min 0 W/m 12,6 km/h (3 Bft)
04.07.2015 23:40 25,7 C 23,9 C 60 % 0 lf 1018,7 hPa 0,0 l/m 0 min 0 min 0 W/m 18,8 km/h (3 Bft)
04.07.2015 23:42 25,7 C 23,3 C 60 % 0 lf 1018,8 hPa 0,0 l/m 0 min 0 min 0 W/m 10,5 km/h (2 Bft)
04.07.2015 23:44 25,6 C 23,3 C 60 % 0 lf 1018,7 hPa 0,0 l/m 0 min 0 min 0 W/m 10,5 km/h (2 Bft)
04.07.2015 23:46 25,6 C 23,3 C 60 % 0 lf 1018,8 hPa 0,0 l/m 0 min 0 min 0 W/m 14,6 km/h (3 Bft)
04.07.2015 23:48 25,6 C 23,3 C 60 % 0 lf 1018,8 hPa 0,0 l/m 0 min 0 min 0 W/m 14,6 km/h (3 Bft)
04.07.2015 23:50 25,6 C 23,3 C 60 % 0 lf 1018,8 hPa 0,0 l/m 0 min 0 min 0 W/m 12,6 km/h (3 Bft)
04.07.2015 23:52 25,5 C 23,3 C 60 % 0 lf 1018,8 hPa 0,0 l/m 0 min 0 min 0 W/m 16,7 km/h (3 Bft)
04.07.2015 23:54 25,5 C 23,3 C 60 % 0 lf 1018,9 hPa 0,0 l/m 0 min 0 min 0 W/m 12,6 km/h (3 Bft)
04.07.2015 23:55 25,5 C 23,3 C 60 % 0 lf 1019,0 hPa 0,0 l/m 0 min 0 min 0 W/m 8,4 km/h (2 Bft)
04.07.2015 23:56 25,5 C 23,3 C 60 % 0 lf 1019,0 hPa 0,0 l/m 0 min 0 min 0 W/m 6,3 km/h (2 Bft)
04.07.2015 23:58 25,4 C 23,3 C 60 % 0 lf 1019,1 hPa 0,0 l/m 0 min 0 min 0 W/m 10,5 km/h (2 Bft)
_ Min-Zeit 05:48 05:02 15:36 00:00 07:42 - - - - 04:44
Minimum _ 22,7 C 20,0 C 38 % 0 lf 1016,5 hPa - - - - 0,0 km/h (0 Bft)
_ Max-Zeit 15:24 16:22 07:14 05:08 00:00 00:00 05:44 21:21 13:28 13:38
Maximum _ 38,3 C 39,4 C 89 % 1 lf 1020,2 hPa 0,0 l/m 2 min 1 min 926 W/m 27,2 km/h
SW (4 Bft)
Durchschnitt _ 30,2 C 27,8 C 63 % 0 lf 1017,6 hPa #0,0 l/m #11:58 h #2 min. 425 W/m 12,2 km/h (2 Bft)
© 2015 W. Hausmann